<?xml version="1.0" encoding="UTF-8"?>
<gpx version="1.1" creator="2bulu-scraper" xmlns="http://www.topografix.com/GPX/1/1">
  <metadata><name>宜宾江安县</name><desc>source: 2bulu.com trackId=81193825; exported 2026-08-31T01:48:21.114Z</desc>
    <bounds minlat="28.4994646" minlon="105.1344114" maxlat="28.5245925" maxlon="105.152599"/>
    <link href="https://www.2bulu.com/track/t-VrP6kXtcCyXp%252FR2KBg5Tzw%253D%253D.htm"><text>2bulu 源页面</text></link>
  </metadata>
  <wpt lat="28.4995748" lon="105.1436711"><ele>450</ele><name>仁和政府
        </name></wpt>
  <wpt lat="28.5064868" lon="105.1395213"><ele>591</ele><name>走小路
        </name></wpt>
  <wpt lat="28.5086016" lon="105.1391139"><ele>615</ele><name>
        </name></wpt>
  <wpt lat="28.5087673" lon="105.1387214"><ele>602</ele><name>走大路
        </name></wpt>
  <wpt lat="28.5093739" lon="105.1379008"><ele>609</ele><name>仁和寨
        </name></wpt>
  <wpt lat="28.5101163" lon="105.1368491"><ele>609</ele><name>
        </name></wpt>
  <wpt lat="28.5105833" lon="105.1362726"><ele>612</ele><name>
        </name></wpt>
  <wpt lat="28.5132239" lon="105.1349381"><ele>626</ele><name>走小路
        </name></wpt>
  <wpt lat="28.5135409" lon="105.1350318"><ele>622</ele><name>
        </name></wpt>
  <wpt lat="28.5135409" lon="105.1350318"><ele>622</ele><name>旁边钻过来，土有点松，抓紧栏杆
        </name></wpt>
  <wpt lat="28.5154847" lon="105.1353418"><ele>595</ele><name>89度的坡
        </name></wpt>
  <wpt lat="28.5155704" lon="105.1358055"><ele>599</ele><name>
        </name></wpt>
  <wpt lat="28.5155704" lon="105.1358055"><ele>599</ele><name>漏仓子
        </name></wpt>
  <wpt lat="28.515539" lon="105.1358182"><ele>602</ele><name>这里翻过去
        </name></wpt>
  <wpt lat="28.519702" lon="105.1378236"><ele>598</ele><name>秋千园
        </name></wpt>
  <wpt lat="28.5195141" lon="105.1379446"><ele>585</ele><name>中午吃饭新寨子（归鹿小筑）
        </name></wpt>
  <wpt lat="28.519817" lon="105.1383296"><ele>595</ele><name>新寨子（归鹿小筑）
        </name></wpt>
  <wpt lat="28.5196462" lon="105.1382663"><ele>599</ele><name>
        </name></wpt>
  <wpt lat="28.52063" lon="105.1410153"><ele>581</ele><name>
        </name></wpt>
  <wpt lat="28.5201073" lon="105.1411206"><ele>600</ele><name>走右边
        </name></wpt>
  <wpt lat="28.52029" lon="105.1422298"><ele>607</ele><name>右边
        </name></wpt>
  <wpt lat="28.519488" lon="105.1431006"><ele>596</ele><name>左边
        </name></wpt>
  <wpt lat="28.5204933" lon="105.1435424"><ele>606</ele><name>蟾蜍
        </name></wpt>
  <wpt lat="28.5212663" lon="105.1427113"><ele>594</ele><name>向右
        </name></wpt>
  <wpt lat="28.5222994" lon="105.1428604"><ele>582</ele><name>仁和寨遗址
        </name></wpt>
  <wpt lat="28.5225322" lon="105.1430102"><ele>580</ele><name>中鼓石
        </name></wpt>
  <wpt lat="28.522703" lon="105.1431452"><ele>581</ele><name>钟鼓石
        </name></wpt>
  <wpt lat="28.5231173" lon="105.1433184"><ele>587</ele><name>
        </name></wpt>
  <wpt lat="28.5229974" lon="105.1433031"><ele>589</ele><name>
        </name></wpt>
  <wpt lat="28.5229974" lon="105.1433031"><ele>589</ele><name>
        </name></wpt>
  <wpt lat="28.5229974" lon="105.1433031"><ele>589</ele><name>
        </name></wpt>
  <wpt lat="28.5231656" lon="105.1443852"><ele>568</ele><name>直走小路
        </name></wpt>
  <wpt lat="28.5232007" lon="105.1446816"><ele>551</ele><name>拦路竹
        </name></wpt>
  <wpt lat="28.5231922" lon="105.1450695"><ele>520</ele><name>
        </name></wpt>
  <wpt lat="28.5231922" lon="105.1450695"><ele>520</ele><name>
        </name></wpt>
  <wpt lat="28.5236291" lon="105.1450204"><ele>487</ele><name>风景点红军洞
        </name></wpt>
  <wpt lat="28.5236889" lon="105.1449384"><ele>491</ele><name>
        </name></wpt>
  <wpt lat="28.5240089" lon="105.1486955"><ele>411</ele><name>王家大院，清朝的房子
        </name></wpt>
  <wpt lat="28.5233599" lon="105.1493414"><ele>394</ele><name>走错了，又回来了
        </name></wpt>
  <wpt lat="28.5233654" lon="105.1500055"><ele>387</ele><name>沿着小溪走
        </name></wpt>
  <wpt lat="28.5225149" lon="105.1507677"><ele>385</ele><name>林间小路
        </name></wpt>
  <wpt lat="28.5210229" lon="105.1515812"><ele>379</ele><name>右边
        </name></wpt>
  <wpt lat="28.520286" lon="105.1513606"><ele>379</ele><name>
        </name></wpt>
  <wpt lat="28.5192105" lon="105.1514819"><ele>376</ele><name>风景点长滩子，水帘洞
        </name></wpt>
  <wpt lat="28.5185085" lon="105.1514072"><ele>376</ele><name>风景
        </name></wpt>
  <wpt lat="28.5171516" lon="105.1525631"><ele>364</ele><name>
        </name></wpt>
  <wpt lat="28.5171516" lon="105.1525631"><ele>364</ele><name>溪水清清
        </name></wpt>
  <wpt lat="28.5157315" lon="105.1514646"><ele>352</ele><name>瀑布
        </name></wpt>
  <wpt lat="28.5157315" lon="105.1514646"><ele>352</ele><name>
        </name></wpt>
  <wpt lat="28.4999568" lon="105.143766"><ele>456</ele><name>回来啦，结束
        </name></wpt>
  <trk><name>宜宾江安县</name>
      <trkseg>
        <trkpt lat="28.4994646" lon="105.1437938"><ele>446.83</ele><time>2026-03-27T17:25:44.000Z</time></trkpt>
        <trkpt lat="28.4994928" lon="105.1437215"><ele>446.83</ele><time>2026-03-27T17:26:36.000Z</time></trkpt>
        <trkpt lat="28.4995748" lon="105.1436711"><ele>448.55</ele><time>2026-03-27T17:26:52.000Z</time></trkpt>
        <trkpt lat="28.499677" lon="105.1436967"><ele>449.37</ele><time>2026-03-27T17:27:14.000Z</time></trkpt>
        <trkpt lat="28.4997701" lon="105.1437504"><ele>449.6</ele><time>2026-03-27T17:27:24.000Z</time></trkpt>
        <trkpt lat="28.4998596" lon="105.1438086"><ele>449.82</ele><time>2026-03-27T17:27:34.000Z</time></trkpt>
        <trkpt lat="28.4999488" lon="105.1437871"><ele>449.96</ele><time>2026-03-27T17:27:46.000Z</time></trkpt>
        <trkpt lat="28.5000087" lon="105.1436964"><ele>449.94</ele><time>2026-03-27T17:28:04.000Z</time></trkpt>
        <trkpt lat="28.5000518" lon="105.1435888"><ele>449.18</ele><time>2026-03-27T17:28:12.000Z</time></trkpt>
        <trkpt lat="28.500093" lon="105.1434779"><ele>449.11</ele><time>2026-03-27T17:28:24.000Z</time></trkpt>
        <trkpt lat="28.500142" lon="105.1433834"><ele>449.8</ele><time>2026-03-27T17:28:36.000Z</time></trkpt>
        <trkpt lat="28.5002289" lon="105.1433433"><ele>451.42</ele><time>2026-03-27T17:28:52.000Z</time></trkpt>
        <trkpt lat="28.5003173" lon="105.1433702"><ele>453</ele><time>2026-03-27T17:29:04.000Z</time></trkpt>
        <trkpt lat="28.5004172" lon="105.1434262"><ele>454.24</ele><time>2026-03-27T17:29:38.000Z</time></trkpt>
        <trkpt lat="28.500514" lon="105.1434873"><ele>455.4</ele><time>2026-03-27T17:29:48.000Z</time></trkpt>
        <trkpt lat="28.5005996" lon="105.1435534"><ele>456.61</ele><time>2026-03-27T17:29:56.000Z</time></trkpt>
        <trkpt lat="28.5006626" lon="105.1436454"><ele>457.56</ele><time>2026-03-27T17:30:06.000Z</time></trkpt>
        <trkpt lat="28.5006745" lon="105.1436704"><ele>458.8</ele><time>2026-03-27T17:30:08.000Z</time></trkpt>
        <trkpt lat="28.5007515" lon="105.1437158"><ele>459.37</ele><time>2026-03-27T17:30:36.000Z</time></trkpt>
        <trkpt lat="28.5008421" lon="105.1437626"><ele>461.53</ele><time>2026-03-27T17:30:40.000Z</time></trkpt>
        <trkpt lat="28.5009354" lon="105.1438122"><ele>463.58</ele><time>2026-03-27T17:30:48.000Z</time></trkpt>
        <trkpt lat="28.5010321" lon="105.1438626"><ele>465.69</ele><time>2026-03-27T17:30:58.000Z</time></trkpt>
        <trkpt lat="28.5011364" lon="105.1439116"><ele>467.94</ele><time>2026-03-27T17:31:08.000Z</time></trkpt>
        <trkpt lat="28.5012261" lon="105.1439574"><ele>469.35</ele><time>2026-03-27T17:31:16.000Z</time></trkpt>
        <trkpt lat="28.5013136" lon="105.14401"><ele>469.68</ele><time>2026-03-27T17:31:24.000Z</time></trkpt>
        <trkpt lat="28.5014029" lon="105.1440606"><ele>469.33</ele><time>2026-03-27T17:31:32.000Z</time></trkpt>
        <trkpt lat="28.501498" lon="105.1440433"><ele>468.94</ele><time>2026-03-27T17:31:44.000Z</time></trkpt>
        <trkpt lat="28.5015905" lon="105.1439943"><ele>469.26</ele><time>2026-03-27T17:31:54.000Z</time></trkpt>
        <trkpt lat="28.5016811" lon="105.1439709"><ele>468.44</ele><time>2026-03-27T17:32:04.000Z</time></trkpt>
        <trkpt lat="28.501777" lon="105.1439667"><ele>467.22</ele><time>2026-03-27T17:32:16.000Z</time></trkpt>
        <trkpt lat="28.5018698" lon="105.14396"><ele>468.22</ele><time>2026-03-27T17:32:26.000Z</time></trkpt>
        <trkpt lat="28.5019591" lon="105.1439181"><ele>468.47</ele><time>2026-03-27T17:32:36.000Z</time></trkpt>
        <trkpt lat="28.5020083" lon="105.1438276"><ele>468.96</ele><time>2026-03-27T17:32:48.000Z</time></trkpt>
        <trkpt lat="28.5020129" lon="105.1438001"><ele>469.44</ele><time>2026-03-27T17:32:50.000Z</time></trkpt>
        <trkpt lat="28.501981" lon="105.1437087"><ele>469.71</ele><time>2026-03-27T17:33:06.000Z</time></trkpt>
        <trkpt lat="28.5019466" lon="105.1436002"><ele>470.72</ele><time>2026-03-27T17:33:14.000Z</time></trkpt>
        <trkpt lat="28.5019077" lon="105.1435463"><ele>471.35</ele><time>2026-03-27T17:33:20.000Z</time></trkpt>
        <trkpt lat="28.5019061" lon="105.1434597"><ele>471.34</ele><time>2026-03-27T17:33:30.000Z</time></trkpt>
        <trkpt lat="28.5019505" lon="105.1433636"><ele>472.13</ele><time>2026-03-27T17:33:38.000Z</time></trkpt>
        <trkpt lat="28.5020368" lon="105.1432799"><ele>472.8</ele><time>2026-03-27T17:33:48.000Z</time></trkpt>
        <trkpt lat="28.502136" lon="105.1432849"><ele>472.92</ele><time>2026-03-27T17:33:58.000Z</time></trkpt>
        <trkpt lat="28.502233" lon="105.1432539"><ele>473.31</ele><time>2026-03-27T17:34:10.000Z</time></trkpt>
        <trkpt lat="28.5023076" lon="105.1431801"><ele>473.79</ele><time>2026-03-27T17:34:20.000Z</time></trkpt>
        <trkpt lat="28.5023712" lon="105.1430914"><ele>474.8</ele><time>2026-03-27T17:34:30.000Z</time></trkpt>
        <trkpt lat="28.5024164" lon="105.1429865"><ele>475.86</ele><time>2026-03-27T17:34:40.000Z</time></trkpt>
        <trkpt lat="28.5024609" lon="105.1428879"><ele>477.18</ele><time>2026-03-27T17:34:48.000Z</time></trkpt>
        <trkpt lat="28.5025102" lon="105.1427894"><ele>478.66</ele><time>2026-03-27T17:34:58.000Z</time></trkpt>
        <trkpt lat="28.5025344" lon="105.1426781"><ele>480.53</ele><time>2026-03-27T17:35:08.000Z</time></trkpt>
        <trkpt lat="28.5024897" lon="105.1425756"><ele>481.29</ele><time>2026-03-27T17:35:20.000Z</time></trkpt>
        <trkpt lat="28.5024047" lon="105.1425015"><ele>481.04</ele><time>2026-03-27T17:35:30.000Z</time></trkpt>
        <trkpt lat="28.5023129" lon="105.1424298"><ele>480.86</ele><time>2026-03-27T17:35:40.000Z</time></trkpt>
        <trkpt lat="28.5023068" lon="105.1423266"><ele>480.68</ele><time>2026-03-27T17:35:50.000Z</time></trkpt>
        <trkpt lat="28.5023274" lon="105.1422232"><ele>480.03</ele><time>2026-03-27T17:36:00.000Z</time></trkpt>
        <trkpt lat="28.5024144" lon="105.1422158"><ele>480.42</ele><time>2026-03-27T17:36:10.000Z</time></trkpt>
        <trkpt lat="28.5025036" lon="105.1421586"><ele>478.66</ele><time>2026-03-27T17:36:20.000Z</time></trkpt>
        <trkpt lat="28.5025845" lon="105.1420734"><ele>477.43</ele><time>2026-03-27T17:36:30.000Z</time></trkpt>
        <trkpt lat="28.5026373" lon="105.1419773"><ele>477.56</ele><time>2026-03-27T17:36:38.000Z</time></trkpt>
        <trkpt lat="28.5026708" lon="105.141877"><ele>478.1</ele><time>2026-03-27T17:36:46.000Z</time></trkpt>
        <trkpt lat="28.5026584" lon="105.141762"><ele>478.71</ele><time>2026-03-27T17:36:56.000Z</time></trkpt>
        <trkpt lat="28.5026003" lon="105.1416631"><ele>479.66</ele><time>2026-03-27T17:37:06.000Z</time></trkpt>
        <trkpt lat="28.5025668" lon="105.1416505"><ele>478.92</ele><time>2026-03-27T17:37:08.000Z</time></trkpt>
        <trkpt lat="28.5024953" lon="105.1416198"><ele>478.96</ele><time>2026-03-27T17:37:24.000Z</time></trkpt>
        <trkpt lat="28.502399" lon="105.1415763"><ele>478.53</ele><time>2026-03-27T17:37:34.000Z</time></trkpt>
        <trkpt lat="28.5022861" lon="105.1415445"><ele>477.68</ele><time>2026-03-27T17:37:44.000Z</time></trkpt>
        <trkpt lat="28.5021893" lon="105.1414993"><ele>476.88</ele><time>2026-03-27T17:37:52.000Z</time></trkpt>
        <trkpt lat="28.5020919" lon="105.1414518"><ele>476.34</ele><time>2026-03-27T17:38:00.000Z</time></trkpt>
        <trkpt lat="28.5020295" lon="105.1413659"><ele>476.17</ele><time>2026-03-27T17:38:08.000Z</time></trkpt>
        <trkpt lat="28.5020528" lon="105.1412561"><ele>475.74</ele><time>2026-03-27T17:38:16.000Z</time></trkpt>
        <trkpt lat="28.5021327" lon="105.1411753"><ele>474.2</ele><time>2026-03-27T17:38:24.000Z</time></trkpt>
        <trkpt lat="28.5021726" lon="105.141148"><ele>473.41</ele><time>2026-03-27T17:38:26.000Z</time></trkpt>
        <trkpt lat="28.502244" lon="105.1410961"><ele>472.93</ele><time>2026-03-27T17:38:36.000Z</time></trkpt>
        <trkpt lat="28.5021947" lon="105.141126"><ele>472.68</ele><time>2026-03-27T17:38:44.000Z</time></trkpt>
        <trkpt lat="28.5021138" lon="105.1411847"><ele>473.79</ele><time>2026-03-27T17:38:52.000Z</time></trkpt>
        <trkpt lat="28.5020772" lon="105.1412236"><ele>474.95</ele><time>2026-03-27T17:38:56.000Z</time></trkpt>
        <trkpt lat="28.5020351" lon="105.1413143"><ele>475.56</ele><time>2026-03-27T17:39:08.000Z</time></trkpt>
        <trkpt lat="28.5020617" lon="105.1414199"><ele>475.52</ele><time>2026-03-27T17:39:18.000Z</time></trkpt>
        <trkpt lat="28.5021345" lon="105.1414903"><ele>475.15</ele><time>2026-03-27T17:39:26.000Z</time></trkpt>
        <trkpt lat="28.5022368" lon="105.141538"><ele>475.3</ele><time>2026-03-27T17:39:36.000Z</time></trkpt>
        <trkpt lat="28.5023478" lon="105.1415783"><ele>474.75</ele><time>2026-03-27T17:39:46.000Z</time></trkpt>
        <trkpt lat="28.5024539" lon="105.1416226"><ele>475.55</ele><time>2026-03-27T17:39:56.000Z</time></trkpt>
        <trkpt lat="28.5025506" lon="105.1416503"><ele>475.22</ele><time>2026-03-27T17:40:04.000Z</time></trkpt>
        <trkpt lat="28.5026447" lon="105.1417033"><ele>474.57</ele><time>2026-03-27T17:40:14.000Z</time></trkpt>
        <trkpt lat="28.5026908" lon="105.141792"><ele>473.44</ele><time>2026-03-27T17:40:22.000Z</time></trkpt>
        <trkpt lat="28.5026945" lon="105.1418993"><ele>473.46</ele><time>2026-03-27T17:40:32.000Z</time></trkpt>
        <trkpt lat="28.5026451" lon="105.1420148"><ele>474.95</ele><time>2026-03-27T17:40:52.000Z</time></trkpt>
        <trkpt lat="28.5025975" lon="105.1420957"><ele>477.42</ele><time>2026-03-27T17:41:04.000Z</time></trkpt>
        <trkpt lat="28.5025167" lon="105.1421588"><ele>478.48</ele><time>2026-03-27T17:41:40.000Z</time></trkpt>
        <trkpt lat="28.5024183" lon="105.1422268"><ele>479.06</ele><time>2026-03-27T17:41:50.000Z</time></trkpt>
        <trkpt lat="28.5023505" lon="105.1422852"><ele>479.46</ele><time>2026-03-27T17:41:58.000Z</time></trkpt>
        <trkpt lat="28.5023723" lon="105.1423919"><ele>479.75</ele><time>2026-03-27T17:44:58.000Z</time></trkpt>
        <trkpt lat="28.5024377" lon="105.1424826"><ele>478.56</ele><time>2026-03-27T17:45:06.000Z</time></trkpt>
        <trkpt lat="28.5025159" lon="105.1425639"><ele>478.76</ele><time>2026-03-27T17:45:14.000Z</time></trkpt>
        <trkpt lat="28.502577" lon="105.1426636"><ele>478.69</ele><time>2026-03-27T17:45:22.000Z</time></trkpt>
        <trkpt lat="28.5025826" lon="105.1427731"><ele>478.81</ele><time>2026-03-27T17:45:30.000Z</time></trkpt>
        <trkpt lat="28.5025316" lon="105.1428813"><ele>479.01</ele><time>2026-03-27T17:45:38.000Z</time></trkpt>
        <trkpt lat="28.5024604" lon="105.1429729"><ele>478.47</ele><time>2026-03-27T17:45:46.000Z</time></trkpt>
        <trkpt lat="28.5023925" lon="105.1430617"><ele>477.97</ele><time>2026-03-27T17:45:54.000Z</time></trkpt>
        <trkpt lat="28.5023225" lon="105.1431484"><ele>476.52</ele><time>2026-03-27T17:46:02.000Z</time></trkpt>
        <trkpt lat="28.5022501" lon="105.1432209"><ele>475.77</ele><time>2026-03-27T17:46:10.000Z</time></trkpt>
        <trkpt lat="28.5021915" lon="105.1433078"><ele>476.98</ele><time>2026-03-27T17:46:22.000Z</time></trkpt>
        <trkpt lat="28.5021099" lon="105.1433446"><ele>477.55</ele><time>2026-03-27T17:46:30.000Z</time></trkpt>
        <trkpt lat="28.5020215" lon="105.1433713"><ele>477.01</ele><time>2026-03-27T17:46:38.000Z</time></trkpt>
        <trkpt lat="28.5020809" lon="105.1433956"><ele>477.67</ele><time>2026-03-27T17:46:58.000Z</time></trkpt>
        <trkpt lat="28.5021914" lon="105.1433944"><ele>478.93</ele><time>2026-03-27T17:47:08.000Z</time></trkpt>
        <trkpt lat="28.5022996" lon="105.1434074"><ele>479.38</ele><time>2026-03-27T17:47:18.000Z</time></trkpt>
        <trkpt lat="28.5024024" lon="105.1434009"><ele>480.89</ele><time>2026-03-27T17:47:34.000Z</time></trkpt>
        <trkpt lat="28.5024946" lon="105.1433699"><ele>481.85</ele><time>2026-03-27T17:47:48.000Z</time></trkpt>
        <trkpt lat="28.5025536" lon="105.1432918"><ele>483.82</ele><time>2026-03-27T17:48:00.000Z</time></trkpt>
        <trkpt lat="28.5025853" lon="105.1431913"><ele>485.37</ele><time>2026-03-27T17:48:08.000Z</time></trkpt>
        <trkpt lat="28.5026151" lon="105.1430761"><ele>487.1</ele><time>2026-03-27T17:48:20.000Z</time></trkpt>
        <trkpt lat="28.5026884" lon="105.1430057"><ele>488.66</ele><time>2026-03-27T17:48:32.000Z</time></trkpt>
        <trkpt lat="28.5027821" lon="105.1429752"><ele>489.97</ele><time>2026-03-27T17:48:42.000Z</time></trkpt>
        <trkpt lat="28.5028846" lon="105.1429817"><ele>490.38</ele><time>2026-03-27T17:48:52.000Z</time></trkpt>
        <trkpt lat="28.5029833" lon="105.1429705"><ele>490.83</ele><time>2026-03-27T17:49:02.000Z</time></trkpt>
        <trkpt lat="28.5030683" lon="105.1429042"><ele>491.92</ele><time>2026-03-27T17:49:12.000Z</time></trkpt>
        <trkpt lat="28.5030855" lon="105.1428783"><ele>494.06</ele><time>2026-03-27T17:49:14.000Z</time></trkpt>
        <trkpt lat="28.5030976" lon="105.1427805"><ele>495.27</ele><time>2026-03-27T17:49:24.000Z</time></trkpt>
        <trkpt lat="28.5030689" lon="105.142666"><ele>496.27</ele><time>2026-03-27T17:49:34.000Z</time></trkpt>
        <trkpt lat="28.5030173" lon="105.1425616"><ele>496.88</ele><time>2026-03-27T17:49:44.000Z</time></trkpt>
        <trkpt lat="28.5029422" lon="105.1424723"><ele>496.61</ele><time>2026-03-27T17:49:56.000Z</time></trkpt>
        <trkpt lat="28.5028384" lon="105.1424111"><ele>496.33</ele><time>2026-03-27T17:50:06.000Z</time></trkpt>
        <trkpt lat="28.5027627" lon="105.1423378"><ele>497.48</ele><time>2026-03-27T17:50:16.000Z</time></trkpt>
        <trkpt lat="28.502759" lon="105.1422404"><ele>498.14</ele><time>2026-03-27T17:50:26.000Z</time></trkpt>
        <trkpt lat="28.5028223" lon="105.1421552"><ele>499.02</ele><time>2026-03-27T17:50:36.000Z</time></trkpt>
        <trkpt lat="28.5029166" lon="105.1420967"><ele>499.55</ele><time>2026-03-27T17:50:46.000Z</time></trkpt>
        <trkpt lat="28.5030219" lon="105.1420709"><ele>499.54</ele><time>2026-03-27T17:50:56.000Z</time></trkpt>
        <trkpt lat="28.503133" lon="105.1420549"><ele>498.71</ele><time>2026-03-27T17:51:06.000Z</time></trkpt>
        <trkpt lat="28.5032255" lon="105.1420148"><ele>497.14</ele><time>2026-03-27T17:51:14.000Z</time></trkpt>
        <trkpt lat="28.5032928" lon="105.141936"><ele>497.03</ele><time>2026-03-27T17:51:22.000Z</time></trkpt>
        <trkpt lat="28.5033317" lon="105.1418396"><ele>498.35</ele><time>2026-03-27T17:51:30.000Z</time></trkpt>
        <trkpt lat="28.5033435" lon="105.1417333"><ele>500.73</ele><time>2026-03-27T17:51:38.000Z</time></trkpt>
        <trkpt lat="28.5034064" lon="105.1416549"><ele>504.56</ele><time>2026-03-27T17:51:50.000Z</time></trkpt>
        <trkpt lat="28.5034896" lon="105.141659"><ele>505.35</ele><time>2026-03-27T17:52:00.000Z</time></trkpt>
        <trkpt lat="28.5035836" lon="105.1417053"><ele>506.08</ele><time>2026-03-27T17:52:12.000Z</time></trkpt>
        <trkpt lat="28.5036552" lon="105.1417886"><ele>506.52</ele><time>2026-03-27T17:52:20.000Z</time></trkpt>
        <trkpt lat="28.5036724" lon="105.1419034"><ele>507.36</ele><time>2026-03-27T17:52:30.000Z</time></trkpt>
        <trkpt lat="28.5036325" lon="105.1420098"><ele>509.73</ele><time>2026-03-27T17:52:40.000Z</time></trkpt>
        <trkpt lat="28.5035503" lon="105.1420949"><ele>511.72</ele><time>2026-03-27T17:52:50.000Z</time></trkpt>
        <trkpt lat="28.5034502" lon="105.1421513"><ele>514.48</ele><time>2026-03-27T17:53:00.000Z</time></trkpt>
        <trkpt lat="28.5033522" lon="105.1421996"><ele>517.59</ele><time>2026-03-27T17:53:10.000Z</time></trkpt>
        <trkpt lat="28.5032627" lon="105.1422574"><ele>519.62</ele><time>2026-03-27T17:53:20.000Z</time></trkpt>
        <trkpt lat="28.5032434" lon="105.1423559"><ele>521.41</ele><time>2026-03-27T17:53:32.000Z</time></trkpt>
        <trkpt lat="28.503265" lon="105.14246"><ele>521.83</ele><time>2026-03-27T17:53:44.000Z</time></trkpt>
        <trkpt lat="28.5033394" lon="105.1425527"><ele>522.27</ele><time>2026-03-27T17:53:56.000Z</time></trkpt>
        <trkpt lat="28.5034414" lon="105.1426176"><ele>524.17</ele><time>2026-03-27T17:54:08.000Z</time></trkpt>
        <trkpt lat="28.5035452" lon="105.1426461"><ele>526.8</ele><time>2026-03-27T17:54:20.000Z</time></trkpt>
        <trkpt lat="28.5036419" lon="105.1426738"><ele>527.76</ele><time>2026-03-27T17:54:30.000Z</time></trkpt>
        <trkpt lat="28.5037302" lon="105.1427178"><ele>528.63</ele><time>2026-03-27T17:54:40.000Z</time></trkpt>
        <trkpt lat="28.5038125" lon="105.1427726"><ele>529.07</ele><time>2026-03-27T17:54:50.000Z</time></trkpt>
        <trkpt lat="28.5038619" lon="105.1428699"><ele>529.15</ele><time>2026-03-27T17:55:08.000Z</time></trkpt>
        <trkpt lat="28.5038448" lon="105.1429834"><ele>529.14</ele><time>2026-03-27T17:55:20.000Z</time></trkpt>
        <trkpt lat="28.5037899" lon="105.1430836"><ele>531.24</ele><time>2026-03-27T17:55:34.000Z</time></trkpt>
        <trkpt lat="28.5037213" lon="105.1431675"><ele>534.3</ele><time>2026-03-27T17:55:46.000Z</time></trkpt>
        <trkpt lat="28.5036444" lon="105.1432422"><ele>535.65</ele><time>2026-03-27T17:56:00.000Z</time></trkpt>
        <trkpt lat="28.5035842" lon="105.1433299"><ele>537.4</ele><time>2026-03-27T17:56:12.000Z</time></trkpt>
        <trkpt lat="28.5035307" lon="105.1434275"><ele>538.98</ele><time>2026-03-27T17:56:28.000Z</time></trkpt>
        <trkpt lat="28.5034841" lon="105.1435198"><ele>539.72</ele><time>2026-03-27T17:56:42.000Z</time></trkpt>
        <trkpt lat="28.5034468" lon="105.1436184"><ele>539.78</ele><time>2026-03-27T17:56:54.000Z</time></trkpt>
        <trkpt lat="28.50344" lon="105.143723"><ele>538.39</ele><time>2026-03-27T17:57:06.000Z</time></trkpt>
        <trkpt lat="28.5035095" lon="105.1437759"><ele>537.6</ele><time>2026-03-27T17:57:22.000Z</time></trkpt>
        <trkpt lat="28.5035997" lon="105.1437289"><ele>539.38</ele><time>2026-03-27T17:57:36.000Z</time></trkpt>
        <trkpt lat="28.5036827" lon="105.1436494"><ele>540.49</ele><time>2026-03-27T17:57:48.000Z</time></trkpt>
        <trkpt lat="28.5037632" lon="105.1435486"><ele>540.56</ele><time>2026-03-27T17:58:00.000Z</time></trkpt>
        <trkpt lat="28.5038403" lon="105.1434531"><ele>540.34</ele><time>2026-03-27T17:58:10.000Z</time></trkpt>
        <trkpt lat="28.5038997" lon="105.1433589"><ele>541.53</ele><time>2026-03-27T17:58:18.000Z</time></trkpt>
        <trkpt lat="28.5039587" lon="105.1432755"><ele>543.06</ele><time>2026-03-27T17:58:26.000Z</time></trkpt>
        <trkpt lat="28.5040255" lon="105.1431927"><ele>545</ele><time>2026-03-27T17:58:36.000Z</time></trkpt>
        <trkpt lat="28.5041058" lon="105.1431169"><ele>547.55</ele><time>2026-03-27T17:58:48.000Z</time></trkpt>
        <trkpt lat="28.5041713" lon="105.1430288"><ele>549.23</ele><time>2026-03-27T17:58:58.000Z</time></trkpt>
        <trkpt lat="28.5042291" lon="105.1429356"><ele>550.82</ele><time>2026-03-27T17:59:08.000Z</time></trkpt>
        <trkpt lat="28.5042776" lon="105.1428431"><ele>552.43</ele><time>2026-03-27T17:59:18.000Z</time></trkpt>
        <trkpt lat="28.5043336" lon="105.1427432"><ele>553.92</ele><time>2026-03-27T17:59:30.000Z</time></trkpt>
        <trkpt lat="28.5043818" lon="105.1426491"><ele>554.31</ele><time>2026-03-27T17:59:40.000Z</time></trkpt>
        <trkpt lat="28.5044195" lon="105.1425423"><ele>554.89</ele><time>2026-03-27T17:59:52.000Z</time></trkpt>
        <trkpt lat="28.5044685" lon="105.1424415"><ele>555.1</ele><time>2026-03-27T18:00:02.000Z</time></trkpt>
        <trkpt lat="28.5045201" lon="105.1423357"><ele>555.91</ele><time>2026-03-27T18:00:12.000Z</time></trkpt>
        <trkpt lat="28.5045729" lon="105.142234"><ele>558.2</ele><time>2026-03-27T18:00:22.000Z</time></trkpt>
        <trkpt lat="28.5046144" lon="105.1421327"><ele>559.9</ele><time>2026-03-27T18:00:32.000Z</time></trkpt>
        <trkpt lat="28.5046735" lon="105.1420386"><ele>560.76</ele><time>2026-03-27T18:00:44.000Z</time></trkpt>
        <trkpt lat="28.5047324" lon="105.1419531"><ele>561.23</ele><time>2026-03-27T18:00:52.000Z</time></trkpt>
        <trkpt lat="28.5047811" lon="105.1418533"><ele>561.9</ele><time>2026-03-27T18:01:02.000Z</time></trkpt>
        <trkpt lat="28.5048193" lon="105.1417571"><ele>562.4</ele><time>2026-03-27T18:01:10.000Z</time></trkpt>
        <trkpt lat="28.5048532" lon="105.1416545"><ele>563.28</ele><time>2026-03-27T18:01:18.000Z</time></trkpt>
        <trkpt lat="28.5049001" lon="105.1415543"><ele>564.13</ele><time>2026-03-27T18:01:26.000Z</time></trkpt>
        <trkpt lat="28.5049461" lon="105.1414435"><ele>565.06</ele><time>2026-03-27T18:01:36.000Z</time></trkpt>
        <trkpt lat="28.5050051" lon="105.1413383"><ele>565.42</ele><time>2026-03-27T18:01:46.000Z</time></trkpt>
        <trkpt lat="28.5050392" lon="105.1412347"><ele>566.18</ele><time>2026-03-27T18:01:56.000Z</time></trkpt>
        <trkpt lat="28.5050939" lon="105.141133"><ele>566.82</ele><time>2026-03-27T18:02:06.000Z</time></trkpt>
        <trkpt lat="28.5051319" lon="105.1410202"><ele>567.34</ele><time>2026-03-27T18:02:16.000Z</time></trkpt>
        <trkpt lat="28.505149" lon="105.1409003"><ele>568.44</ele><time>2026-03-27T18:02:26.000Z</time></trkpt>
        <trkpt lat="28.5051647" lon="105.140792"><ele>569.97</ele><time>2026-03-27T18:02:34.000Z</time></trkpt>
        <trkpt lat="28.5052058" lon="105.1406881"><ele>571.09</ele><time>2026-03-27T18:02:44.000Z</time></trkpt>
        <trkpt lat="28.5052805" lon="105.1406272"><ele>571.89</ele><time>2026-03-27T18:02:54.000Z</time></trkpt>
        <trkpt lat="28.505357" lon="105.1405565"><ele>572.44</ele><time>2026-03-27T18:03:06.000Z</time></trkpt>
        <trkpt lat="28.5054186" lon="105.1404603"><ele>573.13</ele><time>2026-03-27T18:03:20.000Z</time></trkpt>
        <trkpt lat="28.5054639" lon="105.140352"><ele>573.48</ele><time>2026-03-27T18:03:32.000Z</time></trkpt>
        <trkpt lat="28.505539" lon="105.1402602"><ele>572.67</ele><time>2026-03-27T18:03:42.000Z</time></trkpt>
        <trkpt lat="28.5056279" lon="105.1402058"><ele>573.44</ele><time>2026-03-27T18:03:52.000Z</time></trkpt>
        <trkpt lat="28.5057045" lon="105.1401412"><ele>574.16</ele><time>2026-03-27T18:04:04.000Z</time></trkpt>
        <trkpt lat="28.5057747" lon="105.1400673"><ele>573.74</ele><time>2026-03-27T18:04:14.000Z</time></trkpt>
        <trkpt lat="28.5058395" lon="105.1399755"><ele>574.4</ele><time>2026-03-27T18:04:26.000Z</time></trkpt>
        <trkpt lat="28.5059122" lon="105.1399001"><ele>574.66</ele><time>2026-03-27T18:04:36.000Z</time></trkpt>
        <trkpt lat="28.5060054" lon="105.1398507"><ele>575.56</ele><time>2026-03-27T18:04:46.000Z</time></trkpt>
        <trkpt lat="28.5061036" lon="105.1398161"><ele>578.39</ele><time>2026-03-27T18:04:56.000Z</time></trkpt>
        <trkpt lat="28.5061806" lon="105.1397594"><ele>580.27</ele><time>2026-03-27T18:05:08.000Z</time></trkpt>
        <trkpt lat="28.5062488" lon="105.1396787"><ele>580.93</ele><time>2026-03-27T18:05:20.000Z</time></trkpt>
        <trkpt lat="28.5063145" lon="105.1395963"><ele>582.17</ele><time>2026-03-27T18:05:32.000Z</time></trkpt>
        <trkpt lat="28.5063972" lon="105.1395428"><ele>583.32</ele><time>2026-03-27T18:05:44.000Z</time></trkpt>
        <trkpt lat="28.5064868" lon="105.1395213"><ele>585.21</ele><time>2026-03-27T18:05:56.000Z</time></trkpt>
        <trkpt lat="28.5065541" lon="105.1396286"><ele>587.88</ele><time>2026-03-27T18:07:24.000Z</time></trkpt>
        <trkpt lat="28.5066134" lon="105.1397068"><ele>591.39</ele><time>2026-03-27T18:07:42.000Z</time></trkpt>
        <trkpt lat="28.5067006" lon="105.1397307"><ele>594.22</ele><time>2026-03-27T18:08:00.000Z</time></trkpt>
        <trkpt lat="28.5067943" lon="105.139729"><ele>596.8</ele><time>2026-03-27T18:08:12.000Z</time></trkpt>
        <trkpt lat="28.506882" lon="105.1396848"><ele>600.06</ele><time>2026-03-27T18:08:24.000Z</time></trkpt>
        <trkpt lat="28.5069446" lon="105.1395963"><ele>604.23</ele><time>2026-03-27T18:08:38.000Z</time></trkpt>
        <trkpt lat="28.5070281" lon="105.1395559"><ele>609</ele><time>2026-03-27T18:09:02.000Z</time></trkpt>
        <trkpt lat="28.5071203" lon="105.1395376"><ele>610.92</ele><time>2026-03-27T18:09:52.000Z</time></trkpt>
        <trkpt lat="28.5072168" lon="105.1395345"><ele>613.15</ele><time>2026-03-27T18:10:02.000Z</time></trkpt>
        <trkpt lat="28.5073166" lon="105.1395287"><ele>613.44</ele><time>2026-03-27T18:10:12.000Z</time></trkpt>
        <trkpt lat="28.5074151" lon="105.1395497"><ele>614</ele><time>2026-03-27T18:10:26.000Z</time></trkpt>
        <trkpt lat="28.5075103" lon="105.1395855"><ele>616.36</ele><time>2026-03-27T18:10:46.000Z</time></trkpt>
        <trkpt lat="28.5075998" lon="105.1395737"><ele>618.47</ele><time>2026-03-27T18:11:00.000Z</time></trkpt>
        <trkpt lat="28.5076889" lon="105.1395211"><ele>621.76</ele><time>2026-03-27T18:11:14.000Z</time></trkpt>
        <trkpt lat="28.5077841" lon="105.1394995"><ele>624.78</ele><time>2026-03-27T18:11:26.000Z</time></trkpt>
        <trkpt lat="28.5078752" lon="105.1395186"><ele>626.57</ele><time>2026-03-27T18:11:42.000Z</time></trkpt>
        <trkpt lat="28.5079689" lon="105.139543"><ele>628.24</ele><time>2026-03-27T18:11:58.000Z</time></trkpt>
        <trkpt lat="28.5080581" lon="105.139531"><ele>629.8</ele><time>2026-03-27T18:12:16.000Z</time></trkpt>
        <trkpt lat="28.5081043" lon="105.139447"><ele>631.82</ele><time>2026-03-27T18:12:28.000Z</time></trkpt>
        <trkpt lat="28.5081106" lon="105.1393695"><ele>632.52</ele><time>2026-03-27T18:12:38.000Z</time></trkpt>
        <trkpt lat="28.5081466" lon="105.1392815"><ele>633.32</ele><time>2026-03-27T18:12:54.000Z</time></trkpt>
        <trkpt lat="28.5082249" lon="105.1392283"><ele>632.54</ele><time>2026-03-27T18:13:10.000Z</time></trkpt>
        <trkpt lat="28.5083152" lon="105.139177"><ele>630.1</ele><time>2026-03-27T18:13:26.000Z</time></trkpt>
        <trkpt lat="28.5084065" lon="105.1391327"><ele>628</ele><time>2026-03-27T18:13:42.000Z</time></trkpt>
        <trkpt lat="28.5085015" lon="105.1391216"><ele>624.82</ele><time>2026-03-27T18:13:58.000Z</time></trkpt>
        <trkpt lat="28.5086016" lon="105.1391139"><ele>621.8</ele><time>2026-03-27T18:14:14.000Z</time></trkpt>
        <trkpt lat="28.508667" lon="105.1390411"><ele>618.77</ele><time>2026-03-27T18:15:00.000Z</time></trkpt>
        <trkpt lat="28.5087168" lon="105.1389469"><ele>617.06</ele><time>2026-03-27T18:15:10.000Z</time></trkpt>
        <trkpt lat="28.508748" lon="105.1388407"><ele>614.35</ele><time>2026-03-27T18:15:18.000Z</time></trkpt>
        <trkpt lat="28.5087665" lon="105.1387346"><ele>611.98</ele><time>2026-03-27T18:15:26.000Z</time></trkpt>
        <trkpt lat="28.5087673" lon="105.1387214"><ele>610.5</ele><time>2026-03-27T18:15:30.000Z</time></trkpt>
        <trkpt lat="28.5087898" lon="105.1386554"><ele>606.81</ele><time>2026-03-27T18:16:08.000Z</time></trkpt>
        <trkpt lat="28.5088531" lon="105.1385949"><ele>605.93</ele><time>2026-03-27T18:16:20.000Z</time></trkpt>
        <trkpt lat="28.5089227" lon="105.1385141"><ele>605.67</ele><time>2026-03-27T18:17:00.000Z</time></trkpt>
        <trkpt lat="28.508994" lon="105.138429"><ele>605.29</ele><time>2026-03-27T18:17:12.000Z</time></trkpt>
        <trkpt lat="28.509064" lon="105.1383389"><ele>605.03</ele><time>2026-03-27T18:17:24.000Z</time></trkpt>
        <trkpt lat="28.5091281" lon="105.1382467"><ele>604.88</ele><time>2026-03-27T18:17:36.000Z</time></trkpt>
        <trkpt lat="28.5091752" lon="105.1381455"><ele>604.77</ele><time>2026-03-27T18:17:46.000Z</time></trkpt>
        <trkpt lat="28.509224" lon="105.138054"><ele>605.4</ele><time>2026-03-27T18:17:56.000Z</time></trkpt>
        <trkpt lat="28.5092911" lon="105.1379706"><ele>605.84</ele><time>2026-03-27T18:18:06.000Z</time></trkpt>
        <trkpt lat="28.5093739" lon="105.1379008"><ele>606.65</ele><time>2026-03-27T18:18:16.000Z</time></trkpt>
        <trkpt lat="28.5094874" lon="105.1379086"><ele>607.67</ele><time>2026-03-27T18:22:52.000Z</time></trkpt>
        <trkpt lat="28.5094968" lon="105.1379113"><ele>609.68</ele><time>2026-03-27T18:22:56.000Z</time></trkpt>
        <trkpt lat="28.5095746" lon="105.1379053"><ele>610.84</ele><time>2026-03-27T18:23:28.000Z</time></trkpt>
        <trkpt lat="28.5096227" lon="105.1378082"><ele>610.85</ele><time>2026-03-27T18:24:42.000Z</time></trkpt>
        <trkpt lat="28.5096716" lon="105.1377174"><ele>612.18</ele><time>2026-03-27T18:30:38.000Z</time></trkpt>
        <trkpt lat="28.5096916" lon="105.1376048"><ele>615.09</ele><time>2026-03-27T18:30:56.000Z</time></trkpt>
        <trkpt lat="28.5097238" lon="105.1375062"><ele>617.58</ele><time>2026-03-27T18:31:16.000Z</time></trkpt>
        <trkpt lat="28.509737" lon="105.1374046"><ele>620.64</ele><time>2026-03-27T18:31:28.000Z</time></trkpt>
        <trkpt lat="28.5097223" lon="105.1373038"><ele>623.3</ele><time>2026-03-27T18:31:42.000Z</time></trkpt>
        <trkpt lat="28.5097518" lon="105.1371961"><ele>624.83</ele><time>2026-03-27T18:35:34.000Z</time></trkpt>
        <trkpt lat="28.5098145" lon="105.1371185"><ele>625.35</ele><time>2026-03-27T18:35:46.000Z</time></trkpt>
        <trkpt lat="28.5098792" lon="105.1370321"><ele>624.87</ele><time>2026-03-27T18:36:00.000Z</time></trkpt>
        <trkpt lat="28.5099052" lon="105.1370038"><ele>622.92</ele><time>2026-03-27T18:36:04.000Z</time></trkpt>
        <trkpt lat="28.5099598" lon="105.1369489"><ele>621.68</ele><time>2026-03-27T18:36:18.000Z</time></trkpt>
        <trkpt lat="28.5100554" lon="105.1368911"><ele>620</ele><time>2026-03-27T18:38:12.000Z</time></trkpt>
        <trkpt lat="28.510141" lon="105.1368579"><ele>616.83</ele><time>2026-03-27T18:38:26.000Z</time></trkpt>
        <trkpt lat="28.5101163" lon="105.1368491"><ele>614.46</ele><time>2026-03-27T18:38:40.000Z</time></trkpt>
        <trkpt lat="28.510173" lon="105.1367895"><ele>612.08</ele><time>2026-03-27T18:39:38.000Z</time></trkpt>
        <trkpt lat="28.5102414" lon="105.1367058"><ele>610.64</ele><time>2026-03-27T18:39:48.000Z</time></trkpt>
        <trkpt lat="28.5103219" lon="105.136624"><ele>608.97</ele><time>2026-03-27T18:39:58.000Z</time></trkpt>
        <trkpt lat="28.5104041" lon="105.1365463"><ele>607.9</ele><time>2026-03-27T18:40:08.000Z</time></trkpt>
        <trkpt lat="28.5104832" lon="105.136476"><ele>608.33</ele><time>2026-03-27T18:40:18.000Z</time></trkpt>
        <trkpt lat="28.5105396" lon="105.1363822"><ele>609.42</ele><time>2026-03-27T18:40:44.000Z</time></trkpt>
        <trkpt lat="28.5105833" lon="105.1362726"><ele>609.67</ele><time>2026-03-27T18:40:54.000Z</time></trkpt>
        <trkpt lat="28.5106383" lon="105.1361802"><ele>610.84</ele><time>2026-03-27T18:41:28.000Z</time></trkpt>
        <trkpt lat="28.5107176" lon="105.1361369"><ele>610.69</ele><time>2026-03-27T18:41:48.000Z</time></trkpt>
        <trkpt lat="28.5108152" lon="105.1361469"><ele>610.73</ele><time>2026-03-27T18:42:00.000Z</time></trkpt>
        <trkpt lat="28.5109168" lon="105.1361574"><ele>612.12</ele><time>2026-03-27T18:42:32.000Z</time></trkpt>
        <trkpt lat="28.5110215" lon="105.1361415"><ele>614.48</ele><time>2026-03-27T18:42:42.000Z</time></trkpt>
        <trkpt lat="28.5111153" lon="105.1361208"><ele>615.63</ele><time>2026-03-27T18:42:54.000Z</time></trkpt>
        <trkpt lat="28.511214" lon="105.1360855"><ele>615.37</ele><time>2026-03-27T18:43:04.000Z</time></trkpt>
        <trkpt lat="28.5113072" lon="105.1360328"><ele>615.52</ele><time>2026-03-27T18:43:14.000Z</time></trkpt>
        <trkpt lat="28.5113882" lon="105.1359787"><ele>615.53</ele><time>2026-03-27T18:43:24.000Z</time></trkpt>
        <trkpt lat="28.5114767" lon="105.1359255"><ele>614.46</ele><time>2026-03-27T18:43:42.000Z</time></trkpt>
        <trkpt lat="28.5115504" lon="105.1358607"><ele>613.3</ele><time>2026-03-27T18:43:54.000Z</time></trkpt>
        <trkpt lat="28.5116463" lon="105.1358311"><ele>613.35</ele><time>2026-03-27T18:44:46.000Z</time></trkpt>
        <trkpt lat="28.5117445" lon="105.1358219"><ele>614.32</ele><time>2026-03-27T18:45:22.000Z</time></trkpt>
        <trkpt lat="28.5118389" lon="105.135813"><ele>614.34</ele><time>2026-03-27T18:45:32.000Z</time></trkpt>
        <trkpt lat="28.5119344" lon="105.135801"><ele>615.3</ele><time>2026-03-27T18:45:42.000Z</time></trkpt>
        <trkpt lat="28.5120313" lon="105.1357857"><ele>616.38</ele><time>2026-03-27T18:45:52.000Z</time></trkpt>
        <trkpt lat="28.5121281" lon="105.135755"><ele>616.97</ele><time>2026-03-27T18:46:04.000Z</time></trkpt>
        <trkpt lat="28.5122227" lon="105.1357112"><ele>616.99</ele><time>2026-03-27T18:46:16.000Z</time></trkpt>
        <trkpt lat="28.5123038" lon="105.135637"><ele>617.03</ele><time>2026-03-27T18:46:26.000Z</time></trkpt>
        <trkpt lat="28.5123719" lon="105.1355534"><ele>617.02</ele><time>2026-03-27T18:46:36.000Z</time></trkpt>
        <trkpt lat="28.5124404" lon="105.1354716"><ele>617.07</ele><time>2026-03-27T18:46:46.000Z</time></trkpt>
        <trkpt lat="28.5125098" lon="105.1353932"><ele>617.02</ele><time>2026-03-27T18:46:58.000Z</time></trkpt>
        <trkpt lat="28.512591" lon="105.1353216"><ele>616.41</ele><time>2026-03-27T18:47:08.000Z</time></trkpt>
        <trkpt lat="28.5126648" lon="105.1352476"><ele>617.98</ele><time>2026-03-27T18:47:18.000Z</time></trkpt>
        <trkpt lat="28.512745" lon="105.1351819"><ele>618.25</ele><time>2026-03-27T18:47:28.000Z</time></trkpt>
        <trkpt lat="28.5128459" lon="105.1351312"><ele>619.15</ele><time>2026-03-27T18:47:36.000Z</time></trkpt>
        <trkpt lat="28.5129427" lon="105.1351245"><ele>621.58</ele><time>2026-03-27T18:47:48.000Z</time></trkpt>
        <trkpt lat="28.5130254" lon="105.1351304"><ele>624.23</ele><time>2026-03-27T18:48:02.000Z</time></trkpt>
        <trkpt lat="28.5130995" lon="105.1350719"><ele>626.46</ele><time>2026-03-27T18:48:30.000Z</time></trkpt>
        <trkpt lat="28.5131896" lon="105.135024"><ele>627.26</ele><time>2026-03-27T18:48:42.000Z</time></trkpt>
        <trkpt lat="28.5132872" lon="105.1350256"><ele>627.6</ele><time>2026-03-27T18:49:00.000Z</time></trkpt>
        <trkpt lat="28.5133825" lon="105.1350252"><ele>626.89</ele><time>2026-03-27T18:49:16.000Z</time></trkpt>
        <trkpt lat="28.5134806" lon="105.1350289"><ele>625.29</ele><time>2026-03-27T18:49:26.000Z</time></trkpt>
        <trkpt lat="28.5134354" lon="105.1350148"><ele>624.11</ele><time>2026-03-27T18:50:18.000Z</time></trkpt>
        <trkpt lat="28.5133372" lon="105.1349649"><ele>623.32</ele><time>2026-03-27T18:50:42.000Z</time></trkpt>
        <trkpt lat="28.5132239" lon="105.1349381"><ele>623.42</ele><time>2026-03-27T18:50:54.000Z</time></trkpt>
        <trkpt lat="28.513122" lon="105.1348926"><ele>624.5</ele><time>2026-03-27T18:51:22.000Z</time></trkpt>
        <trkpt lat="28.5130269" lon="105.1348246"><ele>625.37</ele><time>2026-03-27T18:51:28.000Z</time></trkpt>
        <trkpt lat="28.5129513" lon="105.1347372"><ele>626.51</ele><time>2026-03-27T18:51:36.000Z</time></trkpt>
        <trkpt lat="28.5128653" lon="105.1346902"><ele>628.27</ele><time>2026-03-27T18:51:48.000Z</time></trkpt>
        <trkpt lat="28.5128013" lon="105.1346172"><ele>628.04</ele><time>2026-03-27T18:52:28.000Z</time></trkpt>
        <trkpt lat="28.5127449" lon="105.1345318"><ele>625.52</ele><time>2026-03-27T18:52:36.000Z</time></trkpt>
        <trkpt lat="28.5126747" lon="105.1344635"><ele>623.88</ele><time>2026-03-27T18:52:50.000Z</time></trkpt>
        <trkpt lat="28.512595" lon="105.1344114"><ele>621.92</ele><time>2026-03-27T18:53:02.000Z</time></trkpt>
        <trkpt lat="28.5125059" lon="105.1344435"><ele>620.82</ele><time>2026-03-27T18:53:22.000Z</time></trkpt>
        <trkpt lat="28.5124143" lon="105.1344397"><ele>619.47</ele><time>2026-03-27T18:53:46.000Z</time></trkpt>
        <trkpt lat="28.5123165" lon="105.1344351"><ele>619.62</ele><time>2026-03-27T18:53:56.000Z</time></trkpt>
        <trkpt lat="28.5122971" lon="105.1344801"><ele>619.55</ele><time>2026-03-27T18:54:12.000Z</time></trkpt>
        <trkpt lat="28.5123137" lon="105.1345787"><ele>620.04</ele><time>2026-03-27T18:54:56.000Z</time></trkpt>
        <trkpt lat="28.5123428" lon="105.1347041"><ele>620.99</ele><time>2026-03-27T18:55:12.000Z</time></trkpt>
        <trkpt lat="28.5123925" lon="105.1348241"><ele>622.22</ele><time>2026-03-27T18:55:22.000Z</time></trkpt>
        <trkpt lat="28.5124688" lon="105.1348972"><ele>623.55</ele><time>2026-03-27T18:55:32.000Z</time></trkpt>
        <trkpt lat="28.5125049" lon="105.1349961"><ele>624.9</ele><time>2026-03-27T18:55:44.000Z</time></trkpt>
        <trkpt lat="28.5124823" lon="105.1351022"><ele>625.29</ele><time>2026-03-27T18:55:56.000Z</time></trkpt>
        <trkpt lat="28.5124222" lon="105.1351891"><ele>626.3</ele><time>2026-03-27T18:56:06.000Z</time></trkpt>
        <trkpt lat="28.51234" lon="105.1352511"><ele>626.28</ele><time>2026-03-27T18:56:16.000Z</time></trkpt>
        <trkpt lat="28.5122363" lon="105.1352783"><ele>626.1</ele><time>2026-03-27T18:57:08.000Z</time></trkpt>
        <trkpt lat="28.512155" lon="105.1353402"><ele>624.9</ele><time>2026-03-27T18:57:30.000Z</time></trkpt>
        <trkpt lat="28.5120739" lon="105.135419"><ele>625.47</ele><time>2026-03-27T18:57:44.000Z</time></trkpt>
        <trkpt lat="28.5119994" lon="105.1354973"><ele>625.82</ele><time>2026-03-27T18:57:54.000Z</time></trkpt>
        <trkpt lat="28.5119255" lon="105.135583"><ele>625.5</ele><time>2026-03-27T18:58:06.000Z</time></trkpt>
        <trkpt lat="28.5118698" lon="105.135678"><ele>624.74</ele><time>2026-03-27T18:58:18.000Z</time></trkpt>
        <trkpt lat="28.5118102" lon="105.135762"><ele>623.55</ele><time>2026-03-27T18:58:32.000Z</time></trkpt>
        <trkpt lat="28.5117439" lon="105.135839"><ele>621.11</ele><time>2026-03-27T18:58:44.000Z</time></trkpt>
        <trkpt lat="28.5116493" lon="105.1358781"><ele>618.55</ele><time>2026-03-27T18:58:54.000Z</time></trkpt>
        <trkpt lat="28.5115566" lon="105.1359039"><ele>616.66</ele><time>2026-03-27T18:59:02.000Z</time></trkpt>
        <trkpt lat="28.5114611" lon="105.1359511"><ele>615.35</ele><time>2026-03-27T18:59:12.000Z</time></trkpt>
        <trkpt lat="28.5113955" lon="105.1359781"><ele>614.52</ele><time>2026-03-27T18:59:20.000Z</time></trkpt>
        <trkpt lat="28.5113055" lon="105.1359971"><ele>614.1</ele><time>2026-03-27T18:59:32.000Z</time></trkpt>
        <trkpt lat="28.5112209" lon="105.1360351"><ele>614.67</ele><time>2026-03-27T18:59:40.000Z</time></trkpt>
        <trkpt lat="28.5111222" lon="105.136074"><ele>615.05</ele><time>2026-03-27T18:59:50.000Z</time></trkpt>
        <trkpt lat="28.511083" lon="105.1361004"><ele>615.52</ele><time>2026-03-27T18:59:54.000Z</time></trkpt>
        <trkpt lat="28.5109979" lon="105.1361316"><ele>615.47</ele><time>2026-03-27T19:01:06.000Z</time></trkpt>
        <trkpt lat="28.5110949" lon="105.136107"><ele>616.88</ele><time>2026-03-27T19:01:44.000Z</time></trkpt>
        <trkpt lat="28.5111137" lon="105.1361011"><ele>616.41</ele><time>2026-03-27T19:01:46.000Z</time></trkpt>
        <trkpt lat="28.5111848" lon="105.1360706"><ele>614.69</ele><time>2026-03-27T19:01:54.000Z</time></trkpt>
        <trkpt lat="28.5112689" lon="105.1360293"><ele>614.88</ele><time>2026-03-27T19:02:08.000Z</time></trkpt>
        <trkpt lat="28.5113643" lon="105.1359776"><ele>613.56</ele><time>2026-03-27T19:02:18.000Z</time></trkpt>
        <trkpt lat="28.5114595" lon="105.135934"><ele>612.62</ele><time>2026-03-27T19:02:26.000Z</time></trkpt>
        <trkpt lat="28.5115499" lon="105.1358957"><ele>612.59</ele><time>2026-03-27T19:02:34.000Z</time></trkpt>
        <trkpt lat="28.5116427" lon="105.13586"><ele>612.11</ele><time>2026-03-27T19:02:44.000Z</time></trkpt>
        <trkpt lat="28.5117403" lon="105.1358563"><ele>612.06</ele><time>2026-03-27T19:02:58.000Z</time></trkpt>
        <trkpt lat="28.5118358" lon="105.1358405"><ele>612.79</ele><time>2026-03-27T19:03:10.000Z</time></trkpt>
        <trkpt lat="28.5119401" lon="105.1358216"><ele>613.4</ele><time>2026-03-27T19:03:22.000Z</time></trkpt>
        <trkpt lat="28.512045" lon="105.1357958"><ele>614.84</ele><time>2026-03-27T19:03:34.000Z</time></trkpt>
        <trkpt lat="28.5121393" lon="105.1357545"><ele>616.17</ele><time>2026-03-27T19:03:46.000Z</time></trkpt>
        <trkpt lat="28.5122202" lon="105.1356933"><ele>616.2</ele><time>2026-03-27T19:03:56.000Z</time></trkpt>
        <trkpt lat="28.5122936" lon="105.13562"><ele>615.71</ele><time>2026-03-27T19:04:06.000Z</time></trkpt>
        <trkpt lat="28.5123676" lon="105.1355361"><ele>614.7</ele><time>2026-03-27T19:04:16.000Z</time></trkpt>
        <trkpt lat="28.5124416" lon="105.1354647"><ele>614.73</ele><time>2026-03-27T19:04:24.000Z</time></trkpt>
        <trkpt lat="28.5125107" lon="105.1353883"><ele>616.01</ele><time>2026-03-27T19:04:34.000Z</time></trkpt>
        <trkpt lat="28.5125806" lon="105.1353142"><ele>618.49</ele><time>2026-03-27T19:04:44.000Z</time></trkpt>
        <trkpt lat="28.5126584" lon="105.1352403"><ele>620.72</ele><time>2026-03-27T19:04:54.000Z</time></trkpt>
        <trkpt lat="28.512742" lon="105.1351722"><ele>622.51</ele><time>2026-03-27T19:05:04.000Z</time></trkpt>
        <trkpt lat="28.5128316" lon="105.135113"><ele>623.84</ele><time>2026-03-27T19:05:14.000Z</time></trkpt>
        <trkpt lat="28.5129336" lon="105.1350769"><ele>623.59</ele><time>2026-03-27T19:05:26.000Z</time></trkpt>
        <trkpt lat="28.5130377" lon="105.1350445"><ele>623.31</ele><time>2026-03-27T19:05:36.000Z</time></trkpt>
        <trkpt lat="28.513136" lon="105.135017"><ele>623.44</ele><time>2026-03-27T19:05:46.000Z</time></trkpt>
        <trkpt lat="28.5132314" lon="105.1350118"><ele>623.79</ele><time>2026-03-27T19:05:54.000Z</time></trkpt>
        <trkpt lat="28.5133343" lon="105.1350262"><ele>624.11</ele><time>2026-03-27T19:06:04.000Z</time></trkpt>
        <trkpt lat="28.5134345" lon="105.1350355"><ele>623.82</ele><time>2026-03-27T19:06:12.000Z</time></trkpt>
        <trkpt lat="28.5135409" lon="105.1350318"><ele>623.28</ele><time>2026-03-27T19:06:24.000Z</time></trkpt>
        <trkpt lat="28.5136406" lon="105.1350329"><ele>622.65</ele><time>2026-03-27T19:09:02.000Z</time></trkpt>
        <trkpt lat="28.5137386" lon="105.1350463"><ele>621.82</ele><time>2026-03-27T19:09:16.000Z</time></trkpt>
        <trkpt lat="28.5138316" lon="105.135093"><ele>620.81</ele><time>2026-03-27T19:09:28.000Z</time></trkpt>
        <trkpt lat="28.5139306" lon="105.1351217"><ele>619.96</ele><time>2026-03-27T19:09:42.000Z</time></trkpt>
        <trkpt lat="28.514025" lon="105.1351437"><ele>620.11</ele><time>2026-03-27T19:09:54.000Z</time></trkpt>
        <trkpt lat="28.5141193" lon="105.1351652"><ele>620.56</ele><time>2026-03-27T19:10:06.000Z</time></trkpt>
        <trkpt lat="28.5142166" lon="105.1351824"><ele>622.72</ele><time>2026-03-27T19:10:18.000Z</time></trkpt>
        <trkpt lat="28.5143104" lon="105.1352055"><ele>625.3</ele><time>2026-03-27T19:10:28.000Z</time></trkpt>
        <trkpt lat="28.5144023" lon="105.1352435"><ele>627.5</ele><time>2026-03-27T19:10:40.000Z</time></trkpt>
        <trkpt lat="28.5144957" lon="105.1352944"><ele>630.31</ele><time>2026-03-27T19:10:54.000Z</time></trkpt>
        <trkpt lat="28.5145877" lon="105.135341"><ele>632.57</ele><time>2026-03-27T19:11:06.000Z</time></trkpt>
        <trkpt lat="28.5146769" lon="105.1353809"><ele>633.73</ele><time>2026-03-27T19:11:24.000Z</time></trkpt>
        <trkpt lat="28.5147661" lon="105.1354269"><ele>633.95</ele><time>2026-03-27T19:11:42.000Z</time></trkpt>
        <trkpt lat="28.5148558" lon="105.1354697"><ele>634.19</ele><time>2026-03-27T19:12:02.000Z</time></trkpt>
        <trkpt lat="28.5149546" lon="105.1354921"><ele>635.24</ele><time>2026-03-27T19:12:18.000Z</time></trkpt>
        <trkpt lat="28.5150501" lon="105.1354965"><ele>636.49</ele><time>2026-03-27T19:12:30.000Z</time></trkpt>
        <trkpt lat="28.515147" lon="105.135494"><ele>636.94</ele><time>2026-03-27T19:12:42.000Z</time></trkpt>
        <trkpt lat="28.5152383" lon="105.1355052"><ele>637.54</ele><time>2026-03-27T19:12:54.000Z</time></trkpt>
        <trkpt lat="28.5153355" lon="105.1355543"><ele>638.6</ele><time>2026-03-27T19:13:08.000Z</time></trkpt>
        <trkpt lat="28.5154292" lon="105.1356209"><ele>637.74</ele><time>2026-03-27T19:13:18.000Z</time></trkpt>
        <trkpt lat="28.5153962" lon="105.1355846"><ele>637.07</ele><time>2026-03-27T19:13:38.000Z</time></trkpt>
        <trkpt lat="28.5153159" lon="105.1355142"><ele>636.29</ele><time>2026-03-27T19:13:52.000Z</time></trkpt>
        <trkpt lat="28.5152153" lon="105.1354655"><ele>638.03</ele><time>2026-03-27T19:14:02.000Z</time></trkpt>
        <trkpt lat="28.5150923" lon="105.1354535"><ele>638.66</ele><time>2026-03-27T19:14:12.000Z</time></trkpt>
        <trkpt lat="28.5149793" lon="105.1354357"><ele>638.44</ele><time>2026-03-27T19:14:22.000Z</time></trkpt>
        <trkpt lat="28.514879" lon="105.1354262"><ele>639.87</ele><time>2026-03-27T19:14:32.000Z</time></trkpt>
        <trkpt lat="28.5147803" lon="105.1353975"><ele>639.88</ele><time>2026-03-27T19:14:42.000Z</time></trkpt>
        <trkpt lat="28.5148346" lon="105.1353923"><ele>638.48</ele><time>2026-03-27T19:15:00.000Z</time></trkpt>
        <trkpt lat="28.5149363" lon="105.1353943"><ele>632.79</ele><time>2026-03-27T19:15:10.000Z</time></trkpt>
        <trkpt lat="28.5150513" lon="105.135392"><ele>627.14</ele><time>2026-03-27T19:15:36.000Z</time></trkpt>
        <trkpt lat="28.5151633" lon="105.1353707"><ele>622.87</ele><time>2026-03-27T19:15:56.000Z</time></trkpt>
        <trkpt lat="28.5152618" lon="105.1354025"><ele>617.97</ele><time>2026-03-27T19:17:12.000Z</time></trkpt>
        <trkpt lat="28.5153524" lon="105.1354045"><ele>613.36</ele><time>2026-03-27T19:17:46.000Z</time></trkpt>
        <trkpt lat="28.5154268" lon="105.1353505"><ele>609.36</ele><time>2026-03-27T19:18:38.000Z</time></trkpt>
        <trkpt lat="28.5155106" lon="105.1353688"><ele>607.32</ele><time>2026-03-27T19:25:02.000Z</time></trkpt>
        <trkpt lat="28.5156056" lon="105.1353914"><ele>600.83</ele><time>2026-03-27T19:27:24.000Z</time></trkpt>
        <trkpt lat="28.5156003" lon="105.135494"><ele>596.83</ele><time>2026-03-27T19:28:54.000Z</time></trkpt>
        <trkpt lat="28.5156651" lon="105.1355881"><ele>592.62</ele><time>2026-03-27T19:29:08.000Z</time></trkpt>
        <trkpt lat="28.5156467" lon="105.135692"><ele>590.82</ele><time>2026-03-27T19:31:58.000Z</time></trkpt>
        <trkpt lat="28.5156722" lon="105.1357945"><ele>588.53</ele><time>2026-03-27T19:33:06.000Z</time></trkpt>
        <trkpt lat="28.5155813" lon="105.1358222"><ele>589.41</ele><time>2026-03-27T19:33:18.000Z</time></trkpt>
        <trkpt lat="28.5155704" lon="105.1358055"><ele>593.35</ele><time>2026-03-27T19:33:20.000Z</time></trkpt>
        <trkpt lat="28.5156364" lon="105.1357001"><ele>595.65</ele><time>2026-03-27T19:35:36.000Z</time></trkpt>
        <trkpt lat="28.5155443" lon="105.135726"><ele>595.98</ele><time>2026-03-27T19:38:38.000Z</time></trkpt>
        <trkpt lat="28.5155674" lon="105.1358277"><ele>597.42</ele><time>2026-03-27T19:39:54.000Z</time></trkpt>
        <trkpt lat="28.5154834" lon="105.1357906"><ele>597.8</ele><time>2026-03-27T19:45:44.000Z</time></trkpt>
        <trkpt lat="28.5155532" lon="105.1358641"><ele>597.29</ele><time>2026-03-27T19:48:12.000Z</time></trkpt>
        <trkpt lat="28.5156228" lon="105.1359386"><ele>597.24</ele><time>2026-03-27T19:48:34.000Z</time></trkpt>
        <trkpt lat="28.5156413" lon="105.1359597"><ele>596.62</ele><time>2026-03-27T19:48:36.000Z</time></trkpt>
        <trkpt lat="28.5157129" lon="105.1360063"><ele>596.13</ele><time>2026-03-27T19:49:16.000Z</time></trkpt>
        <trkpt lat="28.5157396" lon="105.1359874"><ele>595.83</ele><time>2026-03-27T19:49:20.000Z</time></trkpt>
        <trkpt lat="28.5157948" lon="105.1360468"><ele>595.72</ele><time>2026-03-27T19:49:48.000Z</time></trkpt>
        <trkpt lat="28.5158546" lon="105.1361459"><ele>594.36</ele><time>2026-03-27T19:49:56.000Z</time></trkpt>
        <trkpt lat="28.5158726" lon="105.1362242"><ele>592.54</ele><time>2026-03-27T19:50:02.000Z</time></trkpt>
        <trkpt lat="28.5159013" lon="105.1363164"><ele>590.52</ele><time>2026-03-27T19:50:16.000Z</time></trkpt>
        <trkpt lat="28.5159537" lon="105.1363991"><ele>588.78</ele><time>2026-03-27T19:50:26.000Z</time></trkpt>
        <trkpt lat="28.5160234" lon="105.1364811"><ele>587.16</ele><time>2026-03-27T19:50:36.000Z</time></trkpt>
        <trkpt lat="28.5160936" lon="105.1365586"><ele>586.77</ele><time>2026-03-27T19:51:20.000Z</time></trkpt>
        <trkpt lat="28.5161613" lon="105.136631"><ele>588.42</ele><time>2026-03-27T19:51:48.000Z</time></trkpt>
        <trkpt lat="28.5161735" lon="105.1366632"><ele>590.14</ele><time>2026-03-27T19:51:50.000Z</time></trkpt>
        <trkpt lat="28.5162273" lon="105.1367084"><ele>591.32</ele><time>2026-03-27T19:52:14.000Z</time></trkpt>
        <trkpt lat="28.5163326" lon="105.1367182"><ele>593.94</ele><time>2026-03-27T19:53:26.000Z</time></trkpt>
        <trkpt lat="28.5164222" lon="105.1367066"><ele>601.89</ele><time>2026-03-27T19:53:46.000Z</time></trkpt>
        <trkpt lat="28.5165107" lon="105.1367442"><ele>605.67</ele><time>2026-03-27T19:54:14.000Z</time></trkpt>
        <trkpt lat="28.5166024" lon="105.1367649"><ele>608.77</ele><time>2026-03-27T19:54:26.000Z</time></trkpt>
        <trkpt lat="28.5166066" lon="105.1367702"><ele>609.56</ele><time>2026-03-27T19:54:28.000Z</time></trkpt>
        <trkpt lat="28.5166676" lon="105.1367552"><ele>609.23</ele><time>2026-03-27T19:54:42.000Z</time></trkpt>
        <trkpt lat="28.5167598" lon="105.1367477"><ele>609.66</ele><time>2026-03-27T19:54:58.000Z</time></trkpt>
        <trkpt lat="28.5168632" lon="105.1367413"><ele>610.51</ele><time>2026-03-27T19:55:18.000Z</time></trkpt>
        <trkpt lat="28.5169599" lon="105.1367342"><ele>611.67</ele><time>2026-03-27T19:55:36.000Z</time></trkpt>
        <trkpt lat="28.5170542" lon="105.1367168"><ele>614.37</ele><time>2026-03-27T19:58:12.000Z</time></trkpt>
        <trkpt lat="28.5171272" lon="105.1366738"><ele>618.43</ele><time>2026-03-27T19:58:32.000Z</time></trkpt>
        <trkpt lat="28.5172177" lon="105.1366738"><ele>623.27</ele><time>2026-03-27T19:59:02.000Z</time></trkpt>
        <trkpt lat="28.5173126" lon="105.1367062"><ele>625.78</ele><time>2026-03-27T19:59:16.000Z</time></trkpt>
        <trkpt lat="28.5173792" lon="105.1367873"><ele>628.5</ele><time>2026-03-27T19:59:32.000Z</time></trkpt>
        <trkpt lat="28.5174117" lon="105.1368968"><ele>631.63</ele><time>2026-03-27T19:59:48.000Z</time></trkpt>
        <trkpt lat="28.5174818" lon="105.1369414"><ele>634.07</ele><time>2026-03-27T20:00:00.000Z</time></trkpt>
        <trkpt lat="28.5175701" lon="105.1369433"><ele>635.03</ele><time>2026-03-27T20:00:12.000Z</time></trkpt>
        <trkpt lat="28.5176082" lon="105.1368598"><ele>635.55</ele><time>2026-03-27T20:00:28.000Z</time></trkpt>
        <trkpt lat="28.5176765" lon="105.1367728"><ele>636.41</ele><time>2026-03-27T20:00:38.000Z</time></trkpt>
        <trkpt lat="28.517768" lon="105.1367208"><ele>635.11</ele><time>2026-03-27T20:00:46.000Z</time></trkpt>
        <trkpt lat="28.5178676" lon="105.1367032"><ele>632.47</ele><time>2026-03-27T20:00:54.000Z</time></trkpt>
        <trkpt lat="28.517961" lon="105.1367328"><ele>629.26</ele><time>2026-03-27T20:01:52.000Z</time></trkpt>
        <trkpt lat="28.5180301" lon="105.1367941"><ele>629.48</ele><time>2026-03-27T20:02:06.000Z</time></trkpt>
        <trkpt lat="28.5181133" lon="105.1368633"><ele>629.97</ele><time>2026-03-27T20:02:30.000Z</time></trkpt>
        <trkpt lat="28.5180964" lon="105.1368068"><ele>630.29</ele><time>2026-03-27T20:02:48.000Z</time></trkpt>
        <trkpt lat="28.5180309" lon="105.1367569"><ele>627.17</ele><time>2026-03-27T20:03:00.000Z</time></trkpt>
        <trkpt lat="28.5180629" lon="105.1368395"><ele>626.66</ele><time>2026-03-27T20:04:46.000Z</time></trkpt>
        <trkpt lat="28.5181405" lon="105.1369102"><ele>628.08</ele><time>2026-03-27T20:04:54.000Z</time></trkpt>
        <trkpt lat="28.5182353" lon="105.136969"><ele>628.52</ele><time>2026-03-27T20:05:02.000Z</time></trkpt>
        <trkpt lat="28.5183434" lon="105.1370037"><ele>629.36</ele><time>2026-03-27T20:05:10.000Z</time></trkpt>
        <trkpt lat="28.5184572" lon="105.1370175"><ele>629.15</ele><time>2026-03-27T20:05:18.000Z</time></trkpt>
        <trkpt lat="28.5185511" lon="105.1369613"><ele>627.91</ele><time>2026-03-27T20:05:26.000Z</time></trkpt>
        <trkpt lat="28.5186203" lon="105.1368569"><ele>626.61</ele><time>2026-03-27T20:05:34.000Z</time></trkpt>
        <trkpt lat="28.5186486" lon="105.1367321"><ele>624.22</ele><time>2026-03-27T20:05:38.000Z</time></trkpt>
        <trkpt lat="28.5186381" lon="105.1366026"><ele>622.6</ele><time>2026-03-27T20:05:42.000Z</time></trkpt>
        <trkpt lat="28.5186012" lon="105.1364427"><ele>621.17</ele><time>2026-03-27T20:05:46.000Z</time></trkpt>
        <trkpt lat="28.5186406" lon="105.1363026"><ele>619.02</ele><time>2026-03-27T20:05:50.000Z</time></trkpt>
        <trkpt lat="28.5187253" lon="105.1362247"><ele>617.36</ele><time>2026-03-27T20:05:56.000Z</time></trkpt>
        <trkpt lat="28.5188271" lon="105.1361838"><ele>616.35</ele><time>2026-03-27T20:06:06.000Z</time></trkpt>
        <trkpt lat="28.5189327" lon="105.1362101"><ele>615.45</ele><time>2026-03-27T20:06:16.000Z</time></trkpt>
        <trkpt lat="28.5190072" lon="105.1362881"><ele>614.61</ele><time>2026-03-27T20:06:24.000Z</time></trkpt>
        <trkpt lat="28.5189949" lon="105.1363223"><ele>613.28</ele><time>2026-03-27T20:06:40.000Z</time></trkpt>
        <trkpt lat="28.5190226" lon="105.1363946"><ele>613.64</ele><time>2026-03-27T20:07:00.000Z</time></trkpt>
        <trkpt lat="28.5190814" lon="105.1364799"><ele>611.94</ele><time>2026-03-27T20:07:08.000Z</time></trkpt>
        <trkpt lat="28.5191689" lon="105.136545"><ele>610.13</ele><time>2026-03-27T20:07:16.000Z</time></trkpt>
        <trkpt lat="28.5192544" lon="105.1366147"><ele>607.57</ele><time>2026-03-27T20:07:22.000Z</time></trkpt>
        <trkpt lat="28.5193253" lon="105.136696"><ele>605.59</ele><time>2026-03-27T20:07:28.000Z</time></trkpt>
        <trkpt lat="28.5193816" lon="105.1368072"><ele>604.52</ele><time>2026-03-27T20:07:36.000Z</time></trkpt>
        <trkpt lat="28.5194181" lon="105.1369274"><ele>604.54</ele><time>2026-03-27T20:07:44.000Z</time></trkpt>
        <trkpt lat="28.5194445" lon="105.137046"><ele>604.43</ele><time>2026-03-27T20:07:52.000Z</time></trkpt>
        <trkpt lat="28.5194206" lon="105.1371832"><ele>604.43</ele><time>2026-03-27T20:08:00.000Z</time></trkpt>
        <trkpt lat="28.5193524" lon="105.137303"><ele>604.56</ele><time>2026-03-27T20:08:06.000Z</time></trkpt>
        <trkpt lat="28.519319" lon="105.1374232"><ele>602.52</ele><time>2026-03-27T20:08:10.000Z</time></trkpt>
        <trkpt lat="28.519313" lon="105.137476"><ele>600.25</ele><time>2026-03-27T20:08:12.000Z</time></trkpt>
        <trkpt lat="28.5193049" lon="105.1373889"><ele>599.44</ele><time>2026-03-27T20:08:46.000Z</time></trkpt>
        <trkpt lat="28.5193035" lon="105.137335"><ele>600.53</ele><time>2026-03-27T20:08:50.000Z</time></trkpt>
        <trkpt lat="28.5193106" lon="105.1373994"><ele>601.27</ele><time>2026-03-27T20:09:10.000Z</time></trkpt>
        <trkpt lat="28.5193616" lon="105.1374926"><ele>600.53</ele><time>2026-03-27T20:09:20.000Z</time></trkpt>
        <trkpt lat="28.5194545" lon="105.1375633"><ele>599.04</ele><time>2026-03-27T20:09:28.000Z</time></trkpt>
        <trkpt lat="28.5194779" lon="105.1375664"><ele>597.25</ele><time>2026-03-27T20:09:30.000Z</time></trkpt>
        <trkpt lat="28.5195515" lon="105.1375734"><ele>595</ele><time>2026-03-27T20:09:50.000Z</time></trkpt>
        <trkpt lat="28.5196504" lon="105.1375923"><ele>594.13</ele><time>2026-03-27T20:10:00.000Z</time></trkpt>
        <trkpt lat="28.5197503" lon="105.1376228"><ele>594.87</ele><time>2026-03-27T20:10:08.000Z</time></trkpt>
        <trkpt lat="28.5197926" lon="105.1376589"><ele>595.46</ele><time>2026-03-27T20:10:16.000Z</time></trkpt>
        <trkpt lat="28.5197681" lon="105.1377391"><ele>595.57</ele><time>2026-03-27T20:10:48.000Z</time></trkpt>
        <trkpt lat="28.5197224" lon="105.1378224"><ele>597.03</ele><time>2026-03-27T20:11:00.000Z</time></trkpt>
        <trkpt lat="28.5196289" lon="105.1378747"><ele>597.09</ele><time>2026-03-27T20:11:12.000Z</time></trkpt>
        <trkpt lat="28.5196634" lon="105.1378525"><ele>599.44</ele><time>2026-03-27T20:11:42.000Z</time></trkpt>
        <trkpt lat="28.519757" lon="105.1377349"><ele>598.73</ele><time>2026-03-27T20:14:36.000Z</time></trkpt>
        <trkpt lat="28.5198267" lon="105.1376702"><ele>598.52</ele><time>2026-03-27T20:14:46.000Z</time></trkpt>
        <trkpt lat="28.5199183" lon="105.1376989"><ele>598.7</ele><time>2026-03-27T20:14:56.000Z</time></trkpt>
        <trkpt lat="28.519988" lon="105.1377683"><ele>598.84</ele><time>2026-03-27T20:15:06.000Z</time></trkpt>
        <trkpt lat="28.5199727" lon="105.1378653"><ele>598.47</ele><time>2026-03-27T20:15:18.000Z</time></trkpt>
        <trkpt lat="28.5199347" lon="105.1379013"><ele>597.46</ele><time>2026-03-27T20:15:26.000Z</time></trkpt>
        <trkpt lat="28.5198615" lon="105.1379526"><ele>595.79</ele><time>2026-03-27T20:15:42.000Z</time></trkpt>
        <trkpt lat="28.5198453" lon="105.1380094"><ele>594.47</ele><time>2026-03-27T20:15:48.000Z</time></trkpt>
        <trkpt lat="28.5197843" lon="105.1380911"><ele>593.81</ele><time>2026-03-27T20:15:58.000Z</time></trkpt>
        <trkpt lat="28.5197423" lon="105.1381884"><ele>592.31</ele><time>2026-03-27T20:16:04.000Z</time></trkpt>
        <trkpt lat="28.519685" lon="105.1382714"><ele>591.64</ele><time>2026-03-27T20:16:14.000Z</time></trkpt>
        <trkpt lat="28.5196201" lon="105.1382342"><ele>590.82</ele><time>2026-03-27T20:16:22.000Z</time></trkpt>
        <trkpt lat="28.5195747" lon="105.1381556"><ele>589.74</ele><time>2026-03-27T20:16:30.000Z</time></trkpt>
        <trkpt lat="28.5196137" lon="105.1380498"><ele>587.93</ele><time>2026-03-27T20:16:52.000Z</time></trkpt>
        <trkpt lat="28.5196977" lon="105.1379868"><ele>583.9</ele><time>2026-03-27T20:17:06.000Z</time></trkpt>
        <trkpt lat="28.5197045" lon="105.1380053"><ele>582.84</ele><time>2026-03-27T20:17:18.000Z</time></trkpt>
        <trkpt lat="28.5196027" lon="105.138068"><ele>583.5</ele><time>2026-03-27T20:19:16.000Z</time></trkpt>
        <trkpt lat="28.5196303" lon="105.1383244"><ele>581.83</ele><time>2026-03-27T20:19:26.000Z</time></trkpt>
        <trkpt lat="28.5196551" lon="105.1380571"><ele>580.75</ele><time>2026-03-27T20:19:36.000Z</time></trkpt>
        <trkpt lat="28.5196034" lon="105.1380226"><ele>579.99</ele><time>2026-03-27T20:19:46.000Z</time></trkpt>
        <trkpt lat="28.5195094" lon="105.1380257"><ele>580.07</ele><time>2026-03-27T20:19:54.000Z</time></trkpt>
        <trkpt lat="28.5193508" lon="105.1381058"><ele>580.07</ele><time>2026-03-27T20:20:02.000Z</time></trkpt>
        <trkpt lat="28.5192396" lon="105.1381609"><ele>580.21</ele><time>2026-03-27T20:20:04.000Z</time></trkpt>
        <trkpt lat="28.5193733" lon="105.1381834"><ele>580.46</ele><time>2026-03-27T20:20:10.000Z</time></trkpt>
        <trkpt lat="28.5194007" lon="105.1380799"><ele>580.51</ele><time>2026-03-27T20:20:16.000Z</time></trkpt>
        <trkpt lat="28.5194725" lon="105.1379245"><ele>580.36</ele><time>2026-03-27T20:20:20.000Z</time></trkpt>
        <trkpt lat="28.5195141" lon="105.1379446"><ele>581.85</ele><time>2026-03-27T20:20:22.000Z</time></trkpt>
        <trkpt lat="28.5195919" lon="105.138033"><ele>583.1</ele><time>2026-03-27T20:54:30.000Z</time></trkpt>
        <trkpt lat="28.5194958" lon="105.1379911"><ele>585.76</ele><time>2026-03-27T20:58:12.000Z</time></trkpt>
        <trkpt lat="28.5195043" lon="105.1380111"><ele>584.42</ele><time>2026-03-27T20:58:14.000Z</time></trkpt>
        <trkpt lat="28.5195655" lon="105.1381123"><ele>584.08</ele><time>2026-03-27T20:58:42.000Z</time></trkpt>
        <trkpt lat="28.5196308" lon="105.1382117"><ele>586.25</ele><time>2026-03-27T20:58:50.000Z</time></trkpt>
        <trkpt lat="28.519698" lon="105.1382935"><ele>588.29</ele><time>2026-03-27T20:59:04.000Z</time></trkpt>
        <trkpt lat="28.5197917" lon="105.138327"><ele>590.06</ele><time>2026-03-27T20:59:18.000Z</time></trkpt>
        <trkpt lat="28.519817" lon="105.1383296"><ele>592.08</ele><time>2026-03-27T20:59:20.000Z</time></trkpt>
        <trkpt lat="28.5197512" lon="105.1382938"><ele>593.25</ele><time>2026-03-27T21:00:00.000Z</time></trkpt>
        <trkpt lat="28.5196462" lon="105.1382663"><ele>595.13</ele><time>2026-03-27T21:00:10.000Z</time></trkpt>
        <trkpt lat="28.519559" lon="105.1383133"><ele>596.72</ele><time>2026-03-27T21:00:30.000Z</time></trkpt>
        <trkpt lat="28.5194762" lon="105.1383841"><ele>597.16</ele><time>2026-03-27T21:00:40.000Z</time></trkpt>
        <trkpt lat="28.5195291" lon="105.1384337"><ele>596.79</ele><time>2026-03-27T21:00:48.000Z</time></trkpt>
        <trkpt lat="28.5195909" lon="105.1384371"><ele>596.38</ele><time>2026-03-27T21:01:06.000Z</time></trkpt>
        <trkpt lat="28.5195542" lon="105.1383754"><ele>596.03</ele><time>2026-03-27T21:01:24.000Z</time></trkpt>
        <trkpt lat="28.5195771" lon="105.1382777"><ele>596.76</ele><time>2026-03-27T21:01:38.000Z</time></trkpt>
        <trkpt lat="28.5196124" lon="105.1381813"><ele>595.7</ele><time>2026-03-27T21:01:50.000Z</time></trkpt>
        <trkpt lat="28.5196735" lon="105.1382185"><ele>594.11</ele><time>2026-03-27T21:02:12.000Z</time></trkpt>
        <trkpt lat="28.5197431" lon="105.1383017"><ele>592.9</ele><time>2026-03-27T21:02:20.000Z</time></trkpt>
        <trkpt lat="28.5198003" lon="105.1384001"><ele>592</ele><time>2026-03-27T21:02:28.000Z</time></trkpt>
        <trkpt lat="28.5198268" lon="105.1384247"><ele>592.35</ele><time>2026-03-27T21:02:32.000Z</time></trkpt>
        <trkpt lat="28.5197717" lon="105.1383168"><ele>592.33</ele><time>2026-03-27T21:04:22.000Z</time></trkpt>
        <trkpt lat="28.5197418" lon="105.1382049"><ele>592.09</ele><time>2026-03-27T21:05:20.000Z</time></trkpt>
        <trkpt lat="28.5196441" lon="105.1382392"><ele>592.4</ele><time>2026-03-27T21:06:34.000Z</time></trkpt>
        <trkpt lat="28.5195517" lon="105.1381971"><ele>592.58</ele><time>2026-03-27T21:06:48.000Z</time></trkpt>
        <trkpt lat="28.5196167" lon="105.1381097"><ele>592.2</ele><time>2026-03-27T21:12:56.000Z</time></trkpt>
        <trkpt lat="28.5197105" lon="105.1380646"><ele>591.39</ele><time>2026-03-27T21:13:04.000Z</time></trkpt>
        <trkpt lat="28.5197026" lon="105.1380159"><ele>591.87</ele><time>2026-03-27T21:13:08.000Z</time></trkpt>
        <trkpt lat="28.5197451" lon="105.1380628"><ele>593.15</ele><time>2026-03-27T21:13:22.000Z</time></trkpt>
        <trkpt lat="28.5198198" lon="105.1381247"><ele>594.43</ele><time>2026-03-27T21:13:42.000Z</time></trkpt>
        <trkpt lat="28.5197551" lon="105.1379965"><ele>597.86</ele><time>2026-03-27T21:13:57.000Z</time></trkpt>
        <trkpt lat="28.5197799" lon="105.1378852"><ele>597.48</ele><time>2026-03-27T21:14:00.000Z</time></trkpt>
        <trkpt lat="28.5197823" lon="105.1378307"><ele>597.4</ele><time>2026-03-27T21:14:02.000Z</time></trkpt>
        <trkpt lat="28.5197252" lon="105.137897"><ele>597.3</ele><time>2026-03-27T21:14:06.000Z</time></trkpt>
        <trkpt lat="28.5197245" lon="105.1380147"><ele>597.19</ele><time>2026-03-27T21:14:14.000Z</time></trkpt>
        <trkpt lat="28.5196591" lon="105.1380457"><ele>596.87</ele><time>2026-03-27T21:14:22.000Z</time></trkpt>
        <trkpt lat="28.5196027" lon="105.1380359"><ele>596.22</ele><time>2026-03-27T21:14:26.000Z</time></trkpt>
        <trkpt lat="28.5196896" lon="105.1380225"><ele>595.77</ele><time>2026-03-27T21:16:00.000Z</time></trkpt>
        <trkpt lat="28.5197154" lon="105.1380779"><ele>596.09</ele><time>2026-03-27T21:16:30.000Z</time></trkpt>
        <trkpt lat="28.5196358" lon="105.1378968"><ele>595.74</ele><time>2026-03-27T21:17:33.000Z</time></trkpt>
        <trkpt lat="28.5197184" lon="105.1380664"><ele>589.89</ele><time>2026-03-27T21:17:40.000Z</time></trkpt>
        <trkpt lat="28.5196631" lon="105.1381405"><ele>591.09</ele><time>2026-03-27T21:18:02.000Z</time></trkpt>
        <trkpt lat="28.5196869" lon="105.1382181"><ele>591.46</ele><time>2026-03-27T21:19:02.000Z</time></trkpt>
        <trkpt lat="28.5196824" lon="105.1382244"><ele>594.48</ele><time>2026-03-27T21:19:06.000Z</time></trkpt>
        <trkpt lat="28.5197391" lon="105.1381202"><ele>595.96</ele><time>2026-03-27T21:24:08.000Z</time></trkpt>
        <trkpt lat="28.5197118" lon="105.1380135"><ele>594.06</ele><time>2026-03-27T21:24:18.000Z</time></trkpt>
        <trkpt lat="28.5196919" lon="105.1379917"><ele>592.28</ele><time>2026-03-27T21:24:22.000Z</time></trkpt>
        <trkpt lat="28.5196381" lon="105.1381112"><ele>591.71</ele><time>2026-03-27T21:25:24.000Z</time></trkpt>
        <trkpt lat="28.519628" lon="105.1381139"><ele>590.96</ele><time>2026-03-27T21:25:26.000Z</time></trkpt>
        <trkpt lat="28.519671" lon="105.1381943"><ele>590.45</ele><time>2026-03-27T21:25:36.000Z</time></trkpt>
        <trkpt lat="28.5197" lon="105.1382987"><ele>590.66</ele><time>2026-03-27T21:25:48.000Z</time></trkpt>
        <trkpt lat="28.5196701" lon="105.1383997"><ele>590.71</ele><time>2026-03-27T21:26:10.000Z</time></trkpt>
        <trkpt lat="28.519654" lon="105.1385112"><ele>591.2</ele><time>2026-03-27T21:26:26.000Z</time></trkpt>
        <trkpt lat="28.5196523" lon="105.1386217"><ele>590.91</ele><time>2026-03-27T21:26:44.000Z</time></trkpt>
        <trkpt lat="28.5196599" lon="105.1387347"><ele>590.43</ele><time>2026-03-27T21:27:34.000Z</time></trkpt>
        <trkpt lat="28.5196647" lon="105.1388543"><ele>590.59</ele><time>2026-03-27T21:27:44.000Z</time></trkpt>
        <trkpt lat="28.5196789" lon="105.1389782"><ele>590.16</ele><time>2026-03-27T21:27:52.000Z</time></trkpt>
        <trkpt lat="28.519697" lon="105.1390947"><ele>589.51</ele><time>2026-03-27T21:28:02.000Z</time></trkpt>
        <trkpt lat="28.5197043" lon="105.1392142"><ele>589.2</ele><time>2026-03-27T21:28:14.000Z</time></trkpt>
        <trkpt lat="28.5196487" lon="105.1393066"><ele>589.41</ele><time>2026-03-27T21:28:26.000Z</time></trkpt>
        <trkpt lat="28.5196275" lon="105.1394073"><ele>589.7</ele><time>2026-03-27T21:28:36.000Z</time></trkpt>
        <trkpt lat="28.5196664" lon="105.1395023"><ele>589.02</ele><time>2026-03-27T21:28:44.000Z</time></trkpt>
        <trkpt lat="28.5197461" lon="105.139567"><ele>587.73</ele><time>2026-03-27T21:28:50.000Z</time></trkpt>
        <trkpt lat="28.519842" lon="105.1395849"><ele>586.13</ele><time>2026-03-27T21:29:12.000Z</time></trkpt>
        <trkpt lat="28.5199216" lon="105.1396347"><ele>582.65</ele><time>2026-03-27T21:29:20.000Z</time></trkpt>
        <trkpt lat="28.5199426" lon="105.1396502"><ele>579.62</ele><time>2026-03-27T21:29:24.000Z</time></trkpt>
        <trkpt lat="28.5199568" lon="105.1397256"><ele>577.6</ele><time>2026-03-27T21:29:50.000Z</time></trkpt>
        <trkpt lat="28.5200017" lon="105.1398177"><ele>577.38</ele><time>2026-03-27T21:30:00.000Z</time></trkpt>
        <trkpt lat="28.5200673" lon="105.1399035"><ele>577.62</ele><time>2026-03-27T21:30:12.000Z</time></trkpt>
        <trkpt lat="28.5201306" lon="105.1400041"><ele>579.54</ele><time>2026-03-27T21:30:24.000Z</time></trkpt>
        <trkpt lat="28.5201637" lon="105.1401133"><ele>582</ele><time>2026-03-27T21:30:36.000Z</time></trkpt>
        <trkpt lat="28.5202055" lon="105.1402119"><ele>584.38</ele><time>2026-03-27T21:30:48.000Z</time></trkpt>
        <trkpt lat="28.5202883" lon="105.1402581"><ele>585.46</ele><time>2026-03-27T21:31:00.000Z</time></trkpt>
        <trkpt lat="28.520388" lon="105.1402579"><ele>584.09</ele><time>2026-03-27T21:31:10.000Z</time></trkpt>
        <trkpt lat="28.5204924" lon="105.1402415"><ele>582.76</ele><time>2026-03-27T21:31:20.000Z</time></trkpt>
        <trkpt lat="28.5205354" lon="105.1403088"><ele>581.92</ele><time>2026-03-27T21:31:32.000Z</time></trkpt>
        <trkpt lat="28.5205446" lon="105.1404177"><ele>582.15</ele><time>2026-03-27T21:31:42.000Z</time></trkpt>
        <trkpt lat="28.5205215" lon="105.1405383"><ele>582.17</ele><time>2026-03-27T21:31:52.000Z</time></trkpt>
        <trkpt lat="28.5204658" lon="105.1406493"><ele>582.02</ele><time>2026-03-27T21:32:04.000Z</time></trkpt>
        <trkpt lat="28.520424" lon="105.140768"><ele>580.47</ele><time>2026-03-27T21:32:14.000Z</time></trkpt>
        <trkpt lat="28.5204274" lon="105.1408752"><ele>578.35</ele><time>2026-03-27T21:32:22.000Z</time></trkpt>
        <trkpt lat="28.520487" lon="105.1409579"><ele>576.93</ele><time>2026-03-27T21:32:32.000Z</time></trkpt>
        <trkpt lat="28.5205751" lon="105.1410063"><ele>576.71</ele><time>2026-03-27T21:32:46.000Z</time></trkpt>
        <trkpt lat="28.52063" lon="105.1410153"><ele>577.4</ele><time>2026-03-27T21:32:56.000Z</time></trkpt>
        <trkpt lat="28.5206721" lon="105.1410883"><ele>578.78</ele><time>2026-03-27T21:33:14.000Z</time></trkpt>
        <trkpt lat="28.5206924" lon="105.141199"><ele>579.86</ele><time>2026-03-27T21:33:24.000Z</time></trkpt>
        <trkpt lat="28.5206858" lon="105.1412564"><ele>581</ele><time>2026-03-27T21:33:34.000Z</time></trkpt>
        <trkpt lat="28.5206146" lon="105.1412138"><ele>581.75</ele><time>2026-03-27T21:34:02.000Z</time></trkpt>
        <trkpt lat="28.5205198" lon="105.1411498"><ele>582.93</ele><time>2026-03-27T21:34:20.000Z</time></trkpt>
        <trkpt lat="28.5204143" lon="105.1411199"><ele>585.79</ele><time>2026-03-27T21:34:36.000Z</time></trkpt>
        <trkpt lat="28.5203156" lon="105.1411277"><ele>589.52</ele><time>2026-03-27T21:34:58.000Z</time></trkpt>
        <trkpt lat="28.5202258" lon="105.1410972"><ele>592.27</ele><time>2026-03-27T21:35:08.000Z</time></trkpt>
        <trkpt lat="28.5201401" lon="105.1410542"><ele>594.12</ele><time>2026-03-27T21:35:20.000Z</time></trkpt>
        <trkpt lat="28.5201073" lon="105.1411206"><ele>595.47</ele><time>2026-03-27T21:35:32.000Z</time></trkpt>
        <trkpt lat="28.5201053" lon="105.1412319"><ele>597.3</ele><time>2026-03-27T21:36:10.000Z</time></trkpt>
        <trkpt lat="28.5201256" lon="105.1413499"><ele>599.47</ele><time>2026-03-27T21:36:20.000Z</time></trkpt>
        <trkpt lat="28.5201632" lon="105.1414774"><ele>600.11</ele><time>2026-03-27T21:36:30.000Z</time></trkpt>
        <trkpt lat="28.5201855" lon="105.1415964"><ele>600.99</ele><time>2026-03-27T21:36:40.000Z</time></trkpt>
        <trkpt lat="28.5201921" lon="105.1417052"><ele>601.39</ele><time>2026-03-27T21:36:50.000Z</time></trkpt>
        <trkpt lat="28.5202078" lon="105.141816"><ele>601.51</ele><time>2026-03-27T21:37:00.000Z</time></trkpt>
        <trkpt lat="28.5202462" lon="105.1419179"><ele>601.15</ele><time>2026-03-27T21:37:10.000Z</time></trkpt>
        <trkpt lat="28.5202755" lon="105.1420296"><ele>600.64</ele><time>2026-03-27T21:37:20.000Z</time></trkpt>
        <trkpt lat="28.5202925" lon="105.1421382"><ele>601.57</ele><time>2026-03-27T21:37:28.000Z</time></trkpt>
        <trkpt lat="28.52029" lon="105.1422298"><ele>603.06</ele><time>2026-03-27T21:37:36.000Z</time></trkpt>
        <trkpt lat="28.520205" lon="105.1422579"><ele>604.69</ele><time>2026-03-27T21:38:20.000Z</time></trkpt>
        <trkpt lat="28.5201049" lon="105.1422375"><ele>605.68</ele><time>2026-03-27T21:38:30.000Z</time></trkpt>
        <trkpt lat="28.5200049" lon="105.1422715"><ele>606.25</ele><time>2026-03-27T21:38:40.000Z</time></trkpt>
        <trkpt lat="28.5199076" lon="105.1423344"><ele>606.12</ele><time>2026-03-27T21:38:48.000Z</time></trkpt>
        <trkpt lat="28.5198236" lon="105.1424115"><ele>605.83</ele><time>2026-03-27T21:38:56.000Z</time></trkpt>
        <trkpt lat="28.5197412" lon="105.1424927"><ele>605.52</ele><time>2026-03-27T21:39:04.000Z</time></trkpt>
        <trkpt lat="28.5196656" lon="105.1425819"><ele>604.9</ele><time>2026-03-27T21:39:14.000Z</time></trkpt>
        <trkpt lat="28.5196292" lon="105.1426849"><ele>603.04</ele><time>2026-03-27T21:39:22.000Z</time></trkpt>
        <trkpt lat="28.5195948" lon="105.1427856"><ele>601.85</ele><time>2026-03-27T21:39:32.000Z</time></trkpt>
        <trkpt lat="28.5195677" lon="105.1428861"><ele>601.18</ele><time>2026-03-27T21:39:44.000Z</time></trkpt>
        <trkpt lat="28.5195213" lon="105.1429845"><ele>600.91</ele><time>2026-03-27T21:39:54.000Z</time></trkpt>
        <trkpt lat="28.51946" lon="105.1430661"><ele>601.46</ele><time>2026-03-27T21:40:04.000Z</time></trkpt>
        <trkpt lat="28.5194984" lon="105.1431366"><ele>601.28</ele><time>2026-03-27T21:40:18.000Z</time></trkpt>
        <trkpt lat="28.519488" lon="105.1431006"><ele>599.64</ele><time>2026-03-27T21:40:28.000Z</time></trkpt>
        <trkpt lat="28.5195313" lon="105.143147"><ele>598.25</ele><time>2026-03-27T21:40:46.000Z</time></trkpt>
        <trkpt lat="28.5196138" lon="105.1432075"><ele>597.26</ele><time>2026-03-27T21:40:54.000Z</time></trkpt>
        <trkpt lat="28.5196962" lon="105.1432806"><ele>598.38</ele><time>2026-03-27T21:41:02.000Z</time></trkpt>
        <trkpt lat="28.5197581" lon="105.1433661"><ele>598.46</ele><time>2026-03-27T21:41:10.000Z</time></trkpt>
        <trkpt lat="28.5198314" lon="105.1434353"><ele>598.05</ele><time>2026-03-27T21:41:20.000Z</time></trkpt>
        <trkpt lat="28.51991" lon="105.1434932"><ele>597.86</ele><time>2026-03-27T21:41:30.000Z</time></trkpt>
        <trkpt lat="28.5200083" lon="105.1435286"><ele>598.01</ele><time>2026-03-27T21:41:44.000Z</time></trkpt>
        <trkpt lat="28.5200897" lon="105.1434842"><ele>599.53</ele><time>2026-03-27T21:41:56.000Z</time></trkpt>
        <trkpt lat="28.5201825" lon="105.143461"><ele>598.54</ele><time>2026-03-27T21:42:06.000Z</time></trkpt>
        <trkpt lat="28.5202804" lon="105.1434557"><ele>597.51</ele><time>2026-03-27T21:42:20.000Z</time></trkpt>
        <trkpt lat="28.520375" lon="105.1434641"><ele>597.66</ele><time>2026-03-27T21:42:32.000Z</time></trkpt>
        <trkpt lat="28.5204322" lon="105.1434822"><ele>597.96</ele><time>2026-03-27T21:42:38.000Z</time></trkpt>
        <trkpt lat="28.5204933" lon="105.1435424"><ele>598.41</ele><time>2026-03-27T21:43:02.000Z</time></trkpt>
        <trkpt lat="28.5205793" lon="105.1435655"><ele>601.54</ele><time>2026-03-27T21:44:06.000Z</time></trkpt>
        <trkpt lat="28.5206802" lon="105.1435337"><ele>605.35</ele><time>2026-03-27T21:44:32.000Z</time></trkpt>
        <trkpt lat="28.5207589" lon="105.1434739"><ele>607.35</ele><time>2026-03-27T21:44:40.000Z</time></trkpt>
        <trkpt lat="28.5208058" lon="105.1433814"><ele>606.32</ele><time>2026-03-27T21:44:48.000Z</time></trkpt>
        <trkpt lat="28.5207837" lon="105.1432783"><ele>604.3</ele><time>2026-03-27T21:44:58.000Z</time></trkpt>
        <trkpt lat="28.520731" lon="105.1431606"><ele>601.83</ele><time>2026-03-27T21:47:40.000Z</time></trkpt>
        <trkpt lat="28.5206982" lon="105.1430465"><ele>598.82</ele><time>2026-03-27T21:48:06.000Z</time></trkpt>
        <trkpt lat="28.5206924" lon="105.1429391"><ele>595.85</ele><time>2026-03-27T21:48:16.000Z</time></trkpt>
        <trkpt lat="28.5207156" lon="105.142837"><ele>593.28</ele><time>2026-03-27T21:48:26.000Z</time></trkpt>
        <trkpt lat="28.520795" lon="105.1427957"><ele>593.67</ele><time>2026-03-27T21:48:36.000Z</time></trkpt>
        <trkpt lat="28.5208939" lon="105.1427764"><ele>594.94</ele><time>2026-03-27T21:48:46.000Z</time></trkpt>
        <trkpt lat="28.5210028" lon="105.1427692"><ele>597.22</ele><time>2026-03-27T21:48:56.000Z</time></trkpt>
        <trkpt lat="28.5210528" lon="105.1427557"><ele>597.88</ele><time>2026-03-27T21:49:00.000Z</time></trkpt>
        <trkpt lat="28.5211335" lon="105.1427396"><ele>598.5</ele><time>2026-03-27T21:51:28.000Z</time></trkpt>
        <trkpt lat="28.5212357" lon="105.1427139"><ele>597.16</ele><time>2026-03-27T21:51:36.000Z</time></trkpt>
        <trkpt lat="28.5212663" lon="105.1427113"><ele>596.12</ele><time>2026-03-27T21:51:52.000Z</time></trkpt>
        <trkpt lat="28.5213365" lon="105.1427515"><ele>595.32</ele><time>2026-03-27T21:52:36.000Z</time></trkpt>
        <trkpt lat="28.5214045" lon="105.14283"><ele>594.63</ele><time>2026-03-27T21:52:46.000Z</time></trkpt>
        <trkpt lat="28.5214818" lon="105.142904"><ele>594.73</ele><time>2026-03-27T21:52:54.000Z</time></trkpt>
        <trkpt lat="28.5215778" lon="105.1429498"><ele>595.04</ele><time>2026-03-27T21:53:12.000Z</time></trkpt>
        <trkpt lat="28.5216805" lon="105.1429762"><ele>595.34</ele><time>2026-03-27T21:53:22.000Z</time></trkpt>
        <trkpt lat="28.5217804" lon="105.1429925"><ele>594.07</ele><time>2026-03-27T21:53:30.000Z</time></trkpt>
        <trkpt lat="28.5218767" lon="105.1429879"><ele>593.98</ele><time>2026-03-27T21:53:40.000Z</time></trkpt>
        <trkpt lat="28.5219722" lon="105.1429603"><ele>593.36</ele><time>2026-03-27T21:53:48.000Z</time></trkpt>
        <trkpt lat="28.522091" lon="105.1429225"><ele>591.39</ele><time>2026-03-27T21:53:56.000Z</time></trkpt>
        <trkpt lat="28.5220639" lon="105.142885"><ele>588.79</ele><time>2026-03-27T21:54:02.000Z</time></trkpt>
        <trkpt lat="28.5221412" lon="105.1428957"><ele>584.9</ele><time>2026-03-27T21:54:08.000Z</time></trkpt>
        <trkpt lat="28.5221938" lon="105.1428859"><ele>587.2</ele><time>2026-03-27T21:54:16.000Z</time></trkpt>
        <trkpt lat="28.5222863" lon="105.142892"><ele>586.51</ele><time>2026-03-27T21:54:38.000Z</time></trkpt>
        <trkpt lat="28.5222994" lon="105.1428604"><ele>584.61</ele><time>2026-03-27T21:54:46.000Z</time></trkpt>
        <trkpt lat="28.5223538" lon="105.1429053"><ele>583.34</ele><time>2026-03-27T21:55:02.000Z</time></trkpt>
        <trkpt lat="28.5224383" lon="105.1429677"><ele>582.51</ele><time>2026-03-27T21:55:12.000Z</time></trkpt>
        <trkpt lat="28.5225322" lon="105.1430102"><ele>581.91</ele><time>2026-03-27T21:55:22.000Z</time></trkpt>
        <trkpt lat="28.52262" lon="105.1430765"><ele>580.97</ele><time>2026-03-27T21:55:34.000Z</time></trkpt>
        <trkpt lat="28.522703" lon="105.1431452"><ele>580.64</ele><time>2026-03-27T21:56:02.000Z</time></trkpt>
        <trkpt lat="28.5228008" lon="105.143164"><ele>580.75</ele><time>2026-03-27T21:57:14.000Z</time></trkpt>
        <trkpt lat="28.5228708" lon="105.143244"><ele>582.53</ele><time>2026-03-27T21:57:42.000Z</time></trkpt>
        <trkpt lat="28.5228908" lon="105.1432003"><ele>584.42</ele><time>2026-03-27T21:57:50.000Z</time></trkpt>
        <trkpt lat="28.5229667" lon="105.1432074"><ele>584.6</ele><time>2026-03-27T21:58:02.000Z</time></trkpt>
        <trkpt lat="28.5230498" lon="105.1432455"><ele>583</ele><time>2026-03-27T21:58:12.000Z</time></trkpt>
        <trkpt lat="28.5231173" lon="105.1433184"><ele>582.26</ele><time>2026-03-27T21:58:26.000Z</time></trkpt>
        <trkpt lat="28.5230166" lon="105.1432941"><ele>584.39</ele><time>2026-03-27T22:03:32.000Z</time></trkpt>
        <trkpt lat="28.5229974" lon="105.1433031"><ele>587.17</ele><time>2026-03-27T22:03:38.000Z</time></trkpt>
        <trkpt lat="28.5229333" lon="105.1432299"><ele>588.09</ele><time>2026-03-27T22:07:44.000Z</time></trkpt>
        <trkpt lat="28.5230241" lon="105.1432807"><ele>589.6</ele><time>2026-03-27T22:09:24.000Z</time></trkpt>
        <trkpt lat="28.5230871" lon="105.1433704"><ele>590.87</ele><time>2026-03-27T22:09:36.000Z</time></trkpt>
        <trkpt lat="28.5230418" lon="105.1432796"><ele>592.09</ele><time>2026-03-27T22:11:10.000Z</time></trkpt>
        <trkpt lat="28.5229592" lon="105.1432335"><ele>592.59</ele><time>2026-03-27T22:11:24.000Z</time></trkpt>
        <trkpt lat="28.5230352" lon="105.1433"><ele>592.33</ele><time>2026-03-27T22:14:00.000Z</time></trkpt>
        <trkpt lat="28.5231049" lon="105.1433656"><ele>591.72</ele><time>2026-03-27T22:14:10.000Z</time></trkpt>
        <trkpt lat="28.5231715" lon="105.1434356"><ele>591.74</ele><time>2026-03-27T22:14:22.000Z</time></trkpt>
        <trkpt lat="28.5231901" lon="105.1434793"><ele>591.27</ele><time>2026-03-27T22:14:36.000Z</time></trkpt>
        <trkpt lat="28.5231898" lon="105.1435762"><ele>589.87</ele><time>2026-03-27T22:18:00.000Z</time></trkpt>
        <trkpt lat="28.5232044" lon="105.1436781"><ele>586.54</ele><time>2026-03-27T22:18:20.000Z</time></trkpt>
        <trkpt lat="28.5232319" lon="105.1437854"><ele>584.23</ele><time>2026-03-27T22:18:36.000Z</time></trkpt>
        <trkpt lat="28.5232739" lon="105.143887"><ele>581.62</ele><time>2026-03-27T22:18:52.000Z</time></trkpt>
        <trkpt lat="28.5232496" lon="105.143982"><ele>578.51</ele><time>2026-03-27T22:19:10.000Z</time></trkpt>
        <trkpt lat="28.523267" lon="105.1440764"><ele>575.74</ele><time>2026-03-27T22:19:30.000Z</time></trkpt>
        <trkpt lat="28.523249" lon="105.1441853"><ele>573.02</ele><time>2026-03-27T22:19:46.000Z</time></trkpt>
        <trkpt lat="28.5232127" lon="105.1442837"><ele>570.55</ele><time>2026-03-27T22:20:00.000Z</time></trkpt>
        <trkpt lat="28.5231656" lon="105.1443852"><ele>570.17</ele><time>2026-03-27T22:20:12.000Z</time></trkpt>
        <trkpt lat="28.5231493" lon="105.1444962"><ele>569.07</ele><time>2026-03-27T22:20:42.000Z</time></trkpt>
        <trkpt lat="28.5231962" lon="105.1445862"><ele>566.96</ele><time>2026-03-27T22:20:58.000Z</time></trkpt>
        <trkpt lat="28.5232007" lon="105.1446816"><ele>562.5</ele><time>2026-03-27T22:21:56.000Z</time></trkpt>
        <trkpt lat="28.5231317" lon="105.144748"><ele>557.34</ele><time>2026-03-27T22:24:02.000Z</time></trkpt>
        <trkpt lat="28.5230538" lon="105.1448285"><ele>551.99</ele><time>2026-03-27T22:24:22.000Z</time></trkpt>
        <trkpt lat="28.5230279" lon="105.1448761"><ele>547.84</ele><time>2026-03-27T22:24:28.000Z</time></trkpt>
        <trkpt lat="28.5230404" lon="105.1449756"><ele>544.36</ele><time>2026-03-27T22:26:52.000Z</time></trkpt>
        <trkpt lat="28.5230946" lon="105.1450672"><ele>538.99</ele><time>2026-03-27T22:27:22.000Z</time></trkpt>
        <trkpt lat="28.5231922" lon="105.1450695"><ele>532.89</ele><time>2026-03-27T22:27:38.000Z</time></trkpt>
        <trkpt lat="28.5232211" lon="105.1451499"><ele>527.39</ele><time>2026-03-27T22:28:28.000Z</time></trkpt>
        <trkpt lat="28.5232542" lon="105.1452429"><ele>521.93</ele><time>2026-03-27T22:28:48.000Z</time></trkpt>
        <trkpt lat="28.5233006" lon="105.145341"><ele>518.23</ele><time>2026-03-27T22:29:14.000Z</time></trkpt>
        <trkpt lat="28.5233888" lon="105.1453813"><ele>514.24</ele><time>2026-03-27T22:29:30.000Z</time></trkpt>
        <trkpt lat="28.5234627" lon="105.1453264"><ele>509.92</ele><time>2026-03-27T22:29:40.000Z</time></trkpt>
        <trkpt lat="28.5235244" lon="105.1452286"><ele>505.22</ele><time>2026-03-27T22:29:54.000Z</time></trkpt>
        <trkpt lat="28.5235715" lon="105.1451123"><ele>500.54</ele><time>2026-03-27T22:30:08.000Z</time></trkpt>
        <trkpt lat="28.5236291" lon="105.1450204"><ele>495.63</ele><time>2026-03-27T22:30:20.000Z</time></trkpt>
        <trkpt lat="28.5236889" lon="105.1449384"><ele>492.04</ele><time>2026-03-27T22:31:00.000Z</time></trkpt>
        <trkpt lat="28.5237363" lon="105.1448349"><ele>491.43</ele><time>2026-03-27T22:31:12.000Z</time></trkpt>
        <trkpt lat="28.5238287" lon="105.1448871"><ele>491.48</ele><time>2026-03-27T22:31:19.000Z</time></trkpt>
        <trkpt lat="28.5238879" lon="105.1449357"><ele>494.07</ele><time>2026-03-27T22:31:23.000Z</time></trkpt>
        <trkpt lat="28.5239177" lon="105.1450463"><ele>493.98</ele><time>2026-03-27T22:31:33.000Z</time></trkpt>
        <trkpt lat="28.5238687" lon="105.1450081"><ele>495.04</ele><time>2026-03-27T22:31:57.000Z</time></trkpt>
        <trkpt lat="28.5239066" lon="105.1450828"><ele>495.36</ele><time>2026-03-27T22:32:22.000Z</time></trkpt>
        <trkpt lat="28.5238933" lon="105.1449424"><ele>496.14</ele><time>2026-03-27T22:32:30.000Z</time></trkpt>
        <trkpt lat="28.5239175" lon="105.1449626"><ele>496.74</ele><time>2026-03-27T22:32:36.000Z</time></trkpt>
        <trkpt lat="28.5237936" lon="105.1449389"><ele>496.13</ele><time>2026-03-27T22:34:15.000Z</time></trkpt>
        <trkpt lat="28.5236838" lon="105.1449191"><ele>494.12</ele><time>2026-03-27T22:34:21.000Z</time></trkpt>
        <trkpt lat="28.5236015" lon="105.1449693"><ele>491.22</ele><time>2026-03-27T22:34:31.000Z</time></trkpt>
        <trkpt lat="28.5235252" lon="105.1450481"><ele>489.54</ele><time>2026-03-27T22:34:45.000Z</time></trkpt>
        <trkpt lat="28.5234653" lon="105.1451343"><ele>489.66</ele><time>2026-03-27T22:35:09.000Z</time></trkpt>
        <trkpt lat="28.5234055" lon="105.1452236"><ele>490.02</ele><time>2026-03-27T22:35:21.000Z</time></trkpt>
        <trkpt lat="28.5233364" lon="105.1453011"><ele>490.37</ele><time>2026-03-27T22:35:33.000Z</time></trkpt>
        <trkpt lat="28.5232996" lon="105.1453245"><ele>491.98</ele><time>2026-03-27T22:35:39.000Z</time></trkpt>
        <trkpt lat="28.5232483" lon="105.1452651"><ele>495.69</ele><time>2026-03-27T22:36:03.000Z</time></trkpt>
        <trkpt lat="28.5231853" lon="105.1451835"><ele>498.25</ele><time>2026-03-27T22:36:23.000Z</time></trkpt>
        <trkpt lat="28.5231065" lon="105.1451869"><ele>500.4</ele><time>2026-03-27T22:37:19.000Z</time></trkpt>
        <trkpt lat="28.5231019" lon="105.1452687"><ele>505.5</ele><time>2026-03-27T22:37:41.000Z</time></trkpt>
        <trkpt lat="28.5231783" lon="105.1453119"><ele>506.97</ele><time>2026-03-27T22:38:27.000Z</time></trkpt>
        <trkpt lat="28.5232528" lon="105.1453854"><ele>506.51</ele><time>2026-03-27T22:38:49.000Z</time></trkpt>
        <trkpt lat="28.5232991" lon="105.1454891"><ele>506.48</ele><time>2026-03-27T22:39:07.000Z</time></trkpt>
        <trkpt lat="28.5233713" lon="105.1455655"><ele>506.35</ele><time>2026-03-27T22:39:27.000Z</time></trkpt>
        <trkpt lat="28.5234581" lon="105.1455562"><ele>504.66</ele><time>2026-03-27T22:39:41.000Z</time></trkpt>
        <trkpt lat="28.5235137" lon="105.1454687"><ele>502.33</ele><time>2026-03-27T22:39:51.000Z</time></trkpt>
        <trkpt lat="28.5235772" lon="105.1453758"><ele>498.43</ele><time>2026-03-27T22:40:01.000Z</time></trkpt>
        <trkpt lat="28.5236474" lon="105.1452868"><ele>494.71</ele><time>2026-03-27T22:40:11.000Z</time></trkpt>
        <trkpt lat="28.5237108" lon="105.1451926"><ele>491.23</ele><time>2026-03-27T22:40:27.000Z</time></trkpt>
        <trkpt lat="28.5237888" lon="105.1451169"><ele>486.73</ele><time>2026-03-27T22:41:29.000Z</time></trkpt>
        <trkpt lat="28.5238829" lon="105.1451383"><ele>484.5</ele><time>2026-03-27T22:42:07.000Z</time></trkpt>
        <trkpt lat="28.5239514" lon="105.1452126"><ele>484.02</ele><time>2026-03-27T22:42:25.000Z</time></trkpt>
        <trkpt lat="28.523981" lon="105.1453157"><ele>483.26</ele><time>2026-03-27T22:42:37.000Z</time></trkpt>
        <trkpt lat="28.5240177" lon="105.1454233"><ele>481.76</ele><time>2026-03-27T22:42:53.000Z</time></trkpt>
        <trkpt lat="28.5240519" lon="105.1455249"><ele>480.75</ele><time>2026-03-27T22:43:11.000Z</time></trkpt>
        <trkpt lat="28.5240861" lon="105.1456317"><ele>479.25</ele><time>2026-03-27T22:43:31.000Z</time></trkpt>
        <trkpt lat="28.5241344" lon="105.1457287"><ele>476.86</ele><time>2026-03-27T22:43:43.000Z</time></trkpt>
        <trkpt lat="28.5242064" lon="105.1458102"><ele>474.54</ele><time>2026-03-27T22:43:55.000Z</time></trkpt>
        <trkpt lat="28.5242719" lon="105.1458452"><ele>471.77</ele><time>2026-03-27T22:44:03.000Z</time></trkpt>
        <trkpt lat="28.5243184" lon="105.1459312"><ele>469.08</ele><time>2026-03-27T22:50:35.000Z</time></trkpt>
        <trkpt lat="28.5243224" lon="105.1460355"><ele>467.9</ele><time>2026-03-27T22:50:43.000Z</time></trkpt>
        <trkpt lat="28.5243049" lon="105.1461355"><ele>467.13</ele><time>2026-03-27T22:50:53.000Z</time></trkpt>
        <trkpt lat="28.5243113" lon="105.1462259"><ele>467.86</ele><time>2026-03-27T22:51:05.000Z</time></trkpt>
        <trkpt lat="28.5243147" lon="105.1463354"><ele>468.64</ele><time>2026-03-27T22:51:31.000Z</time></trkpt>
        <trkpt lat="28.5243451" lon="105.1464367"><ele>468.02</ele><time>2026-03-27T22:52:05.000Z</time></trkpt>
        <trkpt lat="28.5243978" lon="105.1465288"><ele>464.09</ele><time>2026-03-27T22:52:25.000Z</time></trkpt>
        <trkpt lat="28.5244807" lon="105.1465834"><ele>460.22</ele><time>2026-03-27T22:52:43.000Z</time></trkpt>
        <trkpt lat="28.524571" lon="105.1466197"><ele>457.09</ele><time>2026-03-27T22:53:05.000Z</time></trkpt>
        <trkpt lat="28.5245925" lon="105.146715"><ele>453.76</ele><time>2026-03-27T22:53:15.000Z</time></trkpt>
        <trkpt lat="28.5245618" lon="105.146825"><ele>451.35</ele><time>2026-03-27T22:53:23.000Z</time></trkpt>
        <trkpt lat="28.5245069" lon="105.1469024"><ele>450.62</ele><time>2026-03-27T22:53:35.000Z</time></trkpt>
        <trkpt lat="28.5244224" lon="105.1469559"><ele>447.74</ele><time>2026-03-27T22:53:55.000Z</time></trkpt>
        <trkpt lat="28.5243431" lon="105.1470298"><ele>448.64</ele><time>2026-03-27T22:54:05.000Z</time></trkpt>
        <trkpt lat="28.5242748" lon="105.1471106"><ele>448.73</ele><time>2026-03-27T22:54:13.000Z</time></trkpt>
        <trkpt lat="28.5242818" lon="105.1471206"><ele>448.02</ele><time>2026-03-27T22:54:15.000Z</time></trkpt>
        <trkpt lat="28.5242375" lon="105.1471961"><ele>446.41</ele><time>2026-03-27T22:54:29.000Z</time></trkpt>
        <trkpt lat="28.5241766" lon="105.1472955"><ele>444.29</ele><time>2026-03-27T22:54:41.000Z</time></trkpt>
        <trkpt lat="28.5241109" lon="105.1474048"><ele>441.43</ele><time>2026-03-27T22:54:51.000Z</time></trkpt>
        <trkpt lat="28.5240642" lon="105.1475112"><ele>439.53</ele><time>2026-03-27T22:55:01.000Z</time></trkpt>
        <trkpt lat="28.5240442" lon="105.14763"><ele>436.84</ele><time>2026-03-27T22:55:09.000Z</time></trkpt>
        <trkpt lat="28.524007" lon="105.1477312"><ele>433.72</ele><time>2026-03-27T22:55:15.000Z</time></trkpt>
        <trkpt lat="28.5239289" lon="105.1477995"><ele>431.03</ele><time>2026-03-27T22:55:25.000Z</time></trkpt>
        <trkpt lat="28.5238575" lon="105.1478822"><ele>429</ele><time>2026-03-27T22:55:35.000Z</time></trkpt>
        <trkpt lat="28.5237915" lon="105.1479833"><ele>428.66</ele><time>2026-03-27T22:55:45.000Z</time></trkpt>
        <trkpt lat="28.523733" lon="105.1480868"><ele>428.8</ele><time>2026-03-27T22:55:53.000Z</time></trkpt>
        <trkpt lat="28.5236775" lon="105.1481908"><ele>428.59</ele><time>2026-03-27T22:56:03.000Z</time></trkpt>
        <trkpt lat="28.5236332" lon="105.1482936"><ele>428.85</ele><time>2026-03-27T22:56:13.000Z</time></trkpt>
        <trkpt lat="28.5236092" lon="105.1484164"><ele>427.41</ele><time>2026-03-27T22:56:21.000Z</time></trkpt>
        <trkpt lat="28.5235844" lon="105.1485347"><ele>425.02</ele><time>2026-03-27T22:56:31.000Z</time></trkpt>
        <trkpt lat="28.5236243" lon="105.1486234"><ele>422.43</ele><time>2026-03-27T22:56:41.000Z</time></trkpt>
        <trkpt lat="28.5237005" lon="105.148699"><ele>420.03</ele><time>2026-03-27T22:56:55.000Z</time></trkpt>
        <trkpt lat="28.5237953" lon="105.1487511"><ele>418.36</ele><time>2026-03-27T22:57:07.000Z</time></trkpt>
        <trkpt lat="28.5238896" lon="105.1487917"><ele>416.07</ele><time>2026-03-27T22:57:17.000Z</time></trkpt>
        <trkpt lat="28.5239822" lon="105.1488225"><ele>414.13</ele><time>2026-03-27T22:57:29.000Z</time></trkpt>
        <trkpt lat="28.5240586" lon="105.1487676"><ele>413.74</ele><time>2026-03-27T22:57:41.000Z</time></trkpt>
        <trkpt lat="28.5240777" lon="105.1487282"><ele>412.12</ele><time>2026-03-27T22:57:45.000Z</time></trkpt>
        <trkpt lat="28.5240089" lon="105.1486955"><ele>410.97</ele><time>2026-03-27T22:58:13.000Z</time></trkpt>
        <trkpt lat="28.5240471" lon="105.1487239"><ele>411.07</ele><time>2026-03-27T22:59:11.000Z</time></trkpt>
        <trkpt lat="28.5241617" lon="105.1487469"><ele>411.21</ele><time>2026-03-27T23:00:27.000Z</time></trkpt>
        <trkpt lat="28.5241622" lon="105.1487462"><ele>411.1</ele><time>2026-03-27T23:00:29.000Z</time></trkpt>
        <trkpt lat="28.5242479" lon="105.1487557"><ele>411</ele><time>2026-03-27T23:00:49.000Z</time></trkpt>
        <trkpt lat="28.5243227" lon="105.1488269"><ele>410.28</ele><time>2026-03-27T23:01:23.000Z</time></trkpt>
        <trkpt lat="28.5243708" lon="105.1489343"><ele>408.74</ele><time>2026-03-27T23:01:35.000Z</time></trkpt>
        <trkpt lat="28.5243912" lon="105.149063"><ele>408.24</ele><time>2026-03-27T23:01:45.000Z</time></trkpt>
        <trkpt lat="28.524333" lon="105.1491834"><ele>408.97</ele><time>2026-03-27T23:01:53.000Z</time></trkpt>
        <trkpt lat="28.5242525" lon="105.1492898"><ele>408.12</ele><time>2026-03-27T23:01:59.000Z</time></trkpt>
        <trkpt lat="28.5241866" lon="105.1493961"><ele>406.17</ele><time>2026-03-27T23:02:23.000Z</time></trkpt>
        <trkpt lat="28.5241035" lon="105.1494515"><ele>405.44</ele><time>2026-03-27T23:02:31.000Z</time></trkpt>
        <trkpt lat="28.5240216" lon="105.1495388"><ele>405.51</ele><time>2026-03-27T23:02:55.000Z</time></trkpt>
        <trkpt lat="28.5239579" lon="105.1495813"><ele>407.96</ele><time>2026-03-27T23:03:05.000Z</time></trkpt>
        <trkpt lat="28.5238676" lon="105.1495897"><ele>409.3</ele><time>2026-03-27T23:03:11.000Z</time></trkpt>
        <trkpt lat="28.5237408" lon="105.1496002"><ele>409.96</ele><time>2026-03-27T23:03:15.000Z</time></trkpt>
        <trkpt lat="28.52358" lon="105.1495705"><ele>408.82</ele><time>2026-03-27T23:03:19.000Z</time></trkpt>
        <trkpt lat="28.5234409" lon="105.1494944"><ele>407.53</ele><time>2026-03-27T23:03:23.000Z</time></trkpt>
        <trkpt lat="28.5234136" lon="105.149419"><ele>406.33</ele><time>2026-03-27T23:03:27.000Z</time></trkpt>
        <trkpt lat="28.5233599" lon="105.1493414"><ele>400.06</ele><time>2026-03-27T23:03:41.000Z</time></trkpt>
        <trkpt lat="28.5232718" lon="105.1493436"><ele>397.26</ele><time>2026-03-27T23:04:55.000Z</time></trkpt>
        <trkpt lat="28.5231894" lon="105.1493848"><ele>392.04</ele><time>2026-03-27T23:05:05.000Z</time></trkpt>
        <trkpt lat="28.5231374" lon="105.1494719"><ele>389.6</ele><time>2026-03-27T23:05:17.000Z</time></trkpt>
        <trkpt lat="28.5231087" lon="105.1495807"><ele>388.76</ele><time>2026-03-27T23:05:31.000Z</time></trkpt>
        <trkpt lat="28.5230791" lon="105.1496946"><ele>389.42</ele><time>2026-03-27T23:05:45.000Z</time></trkpt>
        <trkpt lat="28.5230392" lon="105.1498013"><ele>391.7</ele><time>2026-03-27T23:05:57.000Z</time></trkpt>
        <trkpt lat="28.5229715" lon="105.1498853"><ele>394.86</ele><time>2026-03-27T23:06:09.000Z</time></trkpt>
        <trkpt lat="28.5228857" lon="105.1499382"><ele>397.77</ele><time>2026-03-27T23:06:29.000Z</time></trkpt>
        <trkpt lat="28.5229308" lon="105.1498973"><ele>400.43</ele><time>2026-03-27T23:06:51.000Z</time></trkpt>
        <trkpt lat="28.5230039" lon="105.1498158"><ele>398.93</ele><time>2026-03-27T23:06:59.000Z</time></trkpt>
        <trkpt lat="28.5230757" lon="105.1496979"><ele>397.57</ele><time>2026-03-27T23:07:07.000Z</time></trkpt>
        <trkpt lat="28.5231108" lon="105.1495697"><ele>394.4</ele><time>2026-03-27T23:07:13.000Z</time></trkpt>
        <trkpt lat="28.5231231" lon="105.1494364"><ele>391.38</ele><time>2026-03-27T23:07:19.000Z</time></trkpt>
        <trkpt lat="28.5231894" lon="105.1493245"><ele>388.28</ele><time>2026-03-27T23:07:25.000Z</time></trkpt>
        <trkpt lat="28.5232811" lon="105.14931"><ele>387.3</ele><time>2026-03-27T23:07:33.000Z</time></trkpt>
        <trkpt lat="28.5233477" lon="105.1493873"><ele>386.05</ele><time>2026-03-27T23:07:49.000Z</time></trkpt>
        <trkpt lat="28.5233593" lon="105.1495197"><ele>385.81</ele><time>2026-03-27T23:08:35.000Z</time></trkpt>
        <trkpt lat="28.5233666" lon="105.149652"><ele>386.3</ele><time>2026-03-27T23:08:43.000Z</time></trkpt>
        <trkpt lat="28.5233585" lon="105.1497902"><ele>386.05</ele><time>2026-03-27T23:08:49.000Z</time></trkpt>
        <trkpt lat="28.5233453" lon="105.1499064"><ele>386.05</ele><time>2026-03-27T23:08:53.000Z</time></trkpt>
        <trkpt lat="28.5233654" lon="105.1500055"><ele>386.31</ele><time>2026-03-27T23:09:01.000Z</time></trkpt>
        <trkpt lat="28.5233084" lon="105.15008"><ele>386.46</ele><time>2026-03-27T23:09:31.000Z</time></trkpt>
        <trkpt lat="28.5232652" lon="105.1500824"><ele>387.75</ele><time>2026-03-27T23:09:35.000Z</time></trkpt>
        <trkpt lat="28.5231967" lon="105.1501417"><ele>389.23</ele><time>2026-03-27T23:10:13.000Z</time></trkpt>
        <trkpt lat="28.5231185" lon="105.1502138"><ele>390.45</ele><time>2026-03-27T23:10:23.000Z</time></trkpt>
        <trkpt lat="28.5230301" lon="105.150278"><ele>390.75</ele><time>2026-03-27T23:10:33.000Z</time></trkpt>
        <trkpt lat="28.522947" lon="105.1503484"><ele>390.72</ele><time>2026-03-27T23:10:41.000Z</time></trkpt>
        <trkpt lat="28.5228459" lon="105.1503961"><ele>390.78</ele><time>2026-03-27T23:10:51.000Z</time></trkpt>
        <trkpt lat="28.5227408" lon="105.1504369"><ele>389.84</ele><time>2026-03-27T23:10:59.000Z</time></trkpt>
        <trkpt lat="28.52265" lon="105.1504862"><ele>389.4</ele><time>2026-03-27T23:11:07.000Z</time></trkpt>
        <trkpt lat="28.5225876" lon="105.1505649"><ele>389.19</ele><time>2026-03-27T23:11:15.000Z</time></trkpt>
        <trkpt lat="28.5225366" lon="105.1506883"><ele>387.67</ele><time>2026-03-27T23:11:23.000Z</time></trkpt>
        <trkpt lat="28.5225149" lon="105.1507677"><ele>386.38</ele><time>2026-03-27T23:11:29.000Z</time></trkpt>
        <trkpt lat="28.5224652" lon="105.1508436"><ele>385.97</ele><time>2026-03-27T23:11:53.000Z</time></trkpt>
        <trkpt lat="28.522388" lon="105.1509018"><ele>385.39</ele><time>2026-03-27T23:11:59.000Z</time></trkpt>
        <trkpt lat="28.5223476" lon="105.1509242"><ele>385.15</ele><time>2026-03-27T23:12:03.000Z</time></trkpt>
        <trkpt lat="28.5222742" lon="105.1508732"><ele>384.34</ele><time>2026-03-27T23:12:53.000Z</time></trkpt>
        <trkpt lat="28.5222067" lon="105.1507868"><ele>382.91</ele><time>2026-03-27T23:13:01.000Z</time></trkpt>
        <trkpt lat="28.5221451" lon="105.1506945"><ele>382.93</ele><time>2026-03-27T23:13:11.000Z</time></trkpt>
        <trkpt lat="28.52206" lon="105.1506401"><ele>381.9</ele><time>2026-03-27T23:13:21.000Z</time></trkpt>
        <trkpt lat="28.521971" lon="105.1505897"><ele>379.87</ele><time>2026-03-27T23:13:31.000Z</time></trkpt>
        <trkpt lat="28.5218714" lon="105.1505644"><ele>378.36</ele><time>2026-03-27T23:13:39.000Z</time></trkpt>
        <trkpt lat="28.5217701" lon="105.1506006"><ele>378.49</ele><time>2026-03-27T23:13:47.000Z</time></trkpt>
        <trkpt lat="28.5217094" lon="105.1507069"><ele>378.96</ele><time>2026-03-27T23:13:57.000Z</time></trkpt>
        <trkpt lat="28.5216901" lon="105.1508269"><ele>380.05</ele><time>2026-03-27T23:14:07.000Z</time></trkpt>
        <trkpt lat="28.5217186" lon="105.1508861"><ele>379.41</ele><time>2026-03-27T23:14:15.000Z</time></trkpt>
        <trkpt lat="28.5217345" lon="105.1509801"><ele>377.32</ele><time>2026-03-27T23:14:35.000Z</time></trkpt>
        <trkpt lat="28.5217856" lon="105.1510777"><ele>376.07</ele><time>2026-03-27T23:14:47.000Z</time></trkpt>
        <trkpt lat="28.5217921" lon="105.1511922"><ele>374.39</ele><time>2026-03-27T23:14:57.000Z</time></trkpt>
        <trkpt lat="28.521759" lon="105.151303"><ele>373.84</ele><time>2026-03-27T23:15:09.000Z</time></trkpt>
        <trkpt lat="28.5216776" lon="105.1513633"><ele>373.87</ele><time>2026-03-27T23:15:21.000Z</time></trkpt>
        <trkpt lat="28.5215719" lon="105.1513796"><ele>376.92</ele><time>2026-03-27T23:15:31.000Z</time></trkpt>
        <trkpt lat="28.5214703" lon="105.151382"><ele>379.67</ele><time>2026-03-27T23:15:43.000Z</time></trkpt>
        <trkpt lat="28.521369" lon="105.151374"><ele>382.88</ele><time>2026-03-27T23:15:57.000Z</time></trkpt>
        <trkpt lat="28.5212653" lon="105.1513882"><ele>385.11</ele><time>2026-03-27T23:16:27.000Z</time></trkpt>
        <trkpt lat="28.5211622" lon="105.1514271"><ele>386.1</ele><time>2026-03-27T23:16:39.000Z</time></trkpt>
        <trkpt lat="28.5210775" lon="105.1514915"><ele>384.97</ele><time>2026-03-27T23:16:47.000Z</time></trkpt>
        <trkpt lat="28.5210229" lon="105.1515812"><ele>383</ele><time>2026-03-27T23:16:57.000Z</time></trkpt>
        <trkpt lat="28.5209641" lon="105.1516836"><ele>381.41</ele><time>2026-03-27T23:17:23.000Z</time></trkpt>
        <trkpt lat="28.520886" lon="105.1517403"><ele>380.28</ele><time>2026-03-27T23:17:33.000Z</time></trkpt>
        <trkpt lat="28.5207873" lon="105.151739"><ele>382.17</ele><time>2026-03-27T23:17:47.000Z</time></trkpt>
        <trkpt lat="28.5206867" lon="105.1517022"><ele>381.9</ele><time>2026-03-27T23:17:57.000Z</time></trkpt>
        <trkpt lat="28.5206244" lon="105.1516241"><ele>381.79</ele><time>2026-03-27T23:18:08.000Z</time></trkpt>
        <trkpt lat="28.5205421" lon="105.1515776"><ele>379.49</ele><time>2026-03-27T23:18:25.000Z</time></trkpt>
        <trkpt lat="28.520458" lon="105.1515188"><ele>380.49</ele><time>2026-03-27T23:18:33.000Z</time></trkpt>
        <trkpt lat="28.5203759" lon="105.151461"><ele>381.35</ele><time>2026-03-27T23:18:41.000Z</time></trkpt>
        <trkpt lat="28.5202994" lon="105.1513814"><ele>381.75</ele><time>2026-03-27T23:18:51.000Z</time></trkpt>
        <trkpt lat="28.520286" lon="105.1513606"><ele>382.45</ele><time>2026-03-27T23:18:53.000Z</time></trkpt>
        <trkpt lat="28.5202181" lon="105.1513326"><ele>381.13</ele><time>2026-03-27T23:19:41.000Z</time></trkpt>
        <trkpt lat="28.5201381" lon="105.1512847"><ele>379.67</ele><time>2026-03-27T23:19:51.000Z</time></trkpt>
        <trkpt lat="28.5200338" lon="105.151281"><ele>378.76</ele><time>2026-03-27T23:20:05.000Z</time></trkpt>
        <trkpt lat="28.5199346" lon="105.1512516"><ele>376.71</ele><time>2026-03-27T23:20:23.000Z</time></trkpt>
        <trkpt lat="28.5198409" lon="105.1512136"><ele>374.15</ele><time>2026-03-27T23:20:33.000Z</time></trkpt>
        <trkpt lat="28.5197412" lon="105.1512017"><ele>372.41</ele><time>2026-03-27T23:20:43.000Z</time></trkpt>
        <trkpt lat="28.519667" lon="105.1512732"><ele>371.38</ele><time>2026-03-27T23:20:53.000Z</time></trkpt>
        <trkpt lat="28.519593" lon="105.1513512"><ele>372.76</ele><time>2026-03-27T23:21:03.000Z</time></trkpt>
        <trkpt lat="28.5194989" lon="105.151366"><ele>374.79</ele><time>2026-03-27T23:21:17.000Z</time></trkpt>
        <trkpt lat="28.5194066" lon="105.1514013"><ele>374.84</ele><time>2026-03-27T23:21:25.000Z</time></trkpt>
        <trkpt lat="28.5193754" lon="105.151458"><ele>375.02</ele><time>2026-03-27T23:21:33.000Z</time></trkpt>
        <trkpt lat="28.5193028" lon="105.1514895"><ele>373.61</ele><time>2026-03-27T23:22:13.000Z</time></trkpt>
        <trkpt lat="28.5192105" lon="105.1514819"><ele>372.81</ele><time>2026-03-27T23:22:25.000Z</time></trkpt>
        <trkpt lat="28.5191189" lon="105.1514412"><ele>374.2</ele><time>2026-03-27T23:23:01.000Z</time></trkpt>
        <trkpt lat="28.5190264" lon="105.1513808"><ele>374.47</ele><time>2026-03-27T23:23:17.000Z</time></trkpt>
        <trkpt lat="28.5189262" lon="105.1513697"><ele>373.17</ele><time>2026-03-27T23:23:29.000Z</time></trkpt>
        <trkpt lat="28.51883" lon="105.1513574"><ele>372.72</ele><time>2026-03-27T23:23:37.000Z</time></trkpt>
        <trkpt lat="28.5187356" lon="105.1513411"><ele>372.26</ele><time>2026-03-27T23:23:45.000Z</time></trkpt>
        <trkpt lat="28.5186374" lon="105.151347"><ele>372.43</ele><time>2026-03-27T23:23:55.000Z</time></trkpt>
        <trkpt lat="28.518546" lon="105.151379"><ele>373.4</ele><time>2026-03-27T23:24:05.000Z</time></trkpt>
        <trkpt lat="28.5185085" lon="105.1514072"><ele>374.08</ele><time>2026-03-27T23:24:09.000Z</time></trkpt>
        <trkpt lat="28.5184349" lon="105.151422"><ele>375.01</ele><time>2026-03-27T23:24:23.000Z</time></trkpt>
        <trkpt lat="28.5183336" lon="105.1514352"><ele>374.46</ele><time>2026-03-27T23:24:33.000Z</time></trkpt>
        <trkpt lat="28.5182368" lon="105.1514385"><ele>374.38</ele><time>2026-03-27T23:24:43.000Z</time></trkpt>
        <trkpt lat="28.5181448" lon="105.1514764"><ele>373.84</ele><time>2026-03-27T23:24:53.000Z</time></trkpt>
        <trkpt lat="28.5180534" lon="105.1515146"><ele>373.65</ele><time>2026-03-27T23:25:03.000Z</time></trkpt>
        <trkpt lat="28.517978" lon="105.1515829"><ele>373.77</ele><time>2026-03-27T23:25:15.000Z</time></trkpt>
        <trkpt lat="28.5179166" lon="105.15168"><ele>373.61</ele><time>2026-03-27T23:25:25.000Z</time></trkpt>
        <trkpt lat="28.5178608" lon="105.1517825"><ele>373.2</ele><time>2026-03-27T23:25:37.000Z</time></trkpt>
        <trkpt lat="28.5178007" lon="105.151888"><ele>371.55</ele><time>2026-03-27T23:26:25.000Z</time></trkpt>
        <trkpt lat="28.517796" lon="105.1520106"><ele>368.8</ele><time>2026-03-27T23:26:33.000Z</time></trkpt>
        <trkpt lat="28.517765" lon="105.1521197"><ele>366.58</ele><time>2026-03-27T23:26:45.000Z</time></trkpt>
        <trkpt lat="28.5177633" lon="105.1521605"><ele>366.89</ele><time>2026-03-27T23:26:49.000Z</time></trkpt>
        <trkpt lat="28.5177422" lon="105.1520413"><ele>366.23</ele><time>2026-03-27T23:28:15.000Z</time></trkpt>
        <trkpt lat="28.5176859" lon="105.1521402"><ele>362.95</ele><time>2026-03-27T23:28:51.000Z</time></trkpt>
        <trkpt lat="28.5176226" lon="105.1522172"><ele>362.31</ele><time>2026-03-27T23:29:01.000Z</time></trkpt>
        <trkpt lat="28.5175788" lon="105.1523115"><ele>362.85</ele><time>2026-03-27T23:29:17.000Z</time></trkpt>
        <trkpt lat="28.5175072" lon="105.152389"><ele>362.8</ele><time>2026-03-27T23:29:25.000Z</time></trkpt>
        <trkpt lat="28.5174122" lon="105.1524375"><ele>363.99</ele><time>2026-03-27T23:29:35.000Z</time></trkpt>
        <trkpt lat="28.5173353" lon="105.152506"><ele>364.2</ele><time>2026-03-27T23:29:45.000Z</time></trkpt>
        <trkpt lat="28.5172494" lon="105.1525471"><ele>363.55</ele><time>2026-03-27T23:29:55.000Z</time></trkpt>
        <trkpt lat="28.5171516" lon="105.1525631"><ele>363.24</ele><time>2026-03-27T23:30:05.000Z</time></trkpt>
        <trkpt lat="28.5170547" lon="105.1525656"><ele>363.37</ele><time>2026-03-27T23:30:35.000Z</time></trkpt>
        <trkpt lat="28.5169622" lon="105.1525209"><ele>360.7</ele><time>2026-03-27T23:30:45.000Z</time></trkpt>
        <trkpt lat="28.5168942" lon="105.1524349"><ele>359.05</ele><time>2026-03-27T23:30:59.000Z</time></trkpt>
        <trkpt lat="28.5168582" lon="105.1523274"><ele>356.91</ele><time>2026-03-27T23:31:09.000Z</time></trkpt>
        <trkpt lat="28.5168183" lon="105.152227"><ele>354.22</ele><time>2026-03-27T23:31:19.000Z</time></trkpt>
        <trkpt lat="28.5167577" lon="105.1521381"><ele>352.79</ele><time>2026-03-27T23:31:29.000Z</time></trkpt>
        <trkpt lat="28.5166862" lon="105.1520541"><ele>351.01</ele><time>2026-03-27T23:31:39.000Z</time></trkpt>
        <trkpt lat="28.5166184" lon="105.1519635"><ele>348.34</ele><time>2026-03-27T23:31:51.000Z</time></trkpt>
        <trkpt lat="28.5165483" lon="105.1518788"><ele>345.2</ele><time>2026-03-27T23:32:03.000Z</time></trkpt>
        <trkpt lat="28.5164857" lon="105.1517878"><ele>343.18</ele><time>2026-03-27T23:32:15.000Z</time></trkpt>
        <trkpt lat="28.5164183" lon="105.1517053"><ele>343.12</ele><time>2026-03-27T23:32:25.000Z</time></trkpt>
        <trkpt lat="28.5163555" lon="105.1516208"><ele>343.38</ele><time>2026-03-27T23:32:35.000Z</time></trkpt>
        <trkpt lat="28.5162658" lon="105.1515613"><ele>344.2</ele><time>2026-03-27T23:32:47.000Z</time></trkpt>
        <trkpt lat="28.5161664" lon="105.1515105"><ele>345.57</ele><time>2026-03-27T23:32:57.000Z</time></trkpt>
        <trkpt lat="28.5160652" lon="105.1514898"><ele>346.81</ele><time>2026-03-27T23:33:09.000Z</time></trkpt>
        <trkpt lat="28.5159642" lon="105.1514728"><ele>348.9</ele><time>2026-03-27T23:33:19.000Z</time></trkpt>
        <trkpt lat="28.5158683" lon="105.1514567"><ele>349.99</ele><time>2026-03-27T23:33:29.000Z</time></trkpt>
        <trkpt lat="28.5157626" lon="105.1514583"><ele>350.53</ele><time>2026-03-27T23:33:39.000Z</time></trkpt>
        <trkpt lat="28.5157315" lon="105.1514646"><ele>351.81</ele><time>2026-03-27T23:33:41.000Z</time></trkpt>
        <trkpt lat="28.5156721" lon="105.1515086"><ele>352.01</ele><time>2026-03-27T23:34:15.000Z</time></trkpt>
        <trkpt lat="28.5155978" lon="105.1514467"><ele>351.37</ele><time>2026-03-27T23:39:07.000Z</time></trkpt>
        <trkpt lat="28.5155" lon="105.1514156"><ele>352.5</ele><time>2026-03-27T23:39:19.000Z</time></trkpt>
        <trkpt lat="28.5154102" lon="105.1513796"><ele>353.06</ele><time>2026-03-27T23:39:29.000Z</time></trkpt>
        <trkpt lat="28.5153193" lon="105.1513404"><ele>353.72</ele><time>2026-03-27T23:39:39.000Z</time></trkpt>
        <trkpt lat="28.5152215" lon="105.1513462"><ele>353.11</ele><time>2026-03-27T23:39:51.000Z</time></trkpt>
        <trkpt lat="28.5151388" lon="105.151397"><ele>351.04</ele><time>2026-03-27T23:40:01.000Z</time></trkpt>
        <trkpt lat="28.5150641" lon="105.1514804"><ele>348.96</ele><time>2026-03-27T23:40:15.000Z</time></trkpt>
        <trkpt lat="28.5149913" lon="105.1515532"><ele>347.13</ele><time>2026-03-27T23:40:25.000Z</time></trkpt>
        <trkpt lat="28.51492" lon="105.1516407"><ele>344.96</ele><time>2026-03-27T23:40:35.000Z</time></trkpt>
        <trkpt lat="28.5148622" lon="105.1517391"><ele>344.99</ele><time>2026-03-27T23:40:45.000Z</time></trkpt>
        <trkpt lat="28.5148159" lon="105.1518402"><ele>345.77</ele><time>2026-03-27T23:40:55.000Z</time></trkpt>
        <trkpt lat="28.5147608" lon="105.1519308"><ele>345.68</ele><time>2026-03-27T23:41:05.000Z</time></trkpt>
        <trkpt lat="28.5147023" lon="105.1520138"><ele>347.09</ele><time>2026-03-27T23:41:15.000Z</time></trkpt>
        <trkpt lat="28.5146269" lon="105.1520728"><ele>347.57</ele><time>2026-03-27T23:41:25.000Z</time></trkpt>
        <trkpt lat="28.5145323" lon="105.1521113"><ele>349.06</ele><time>2026-03-27T23:41:37.000Z</time></trkpt>
        <trkpt lat="28.5144277" lon="105.1521343"><ele>349.91</ele><time>2026-03-27T23:41:49.000Z</time></trkpt>
        <trkpt lat="28.5143276" lon="105.1521601"><ele>349.53</ele><time>2026-03-27T23:41:59.000Z</time></trkpt>
        <trkpt lat="28.5142342" lon="105.1521716"><ele>348.87</ele><time>2026-03-27T23:42:07.000Z</time></trkpt>
        <trkpt lat="28.5141358" lon="105.1521724"><ele>349.19</ele><time>2026-03-27T23:42:17.000Z</time></trkpt>
        <trkpt lat="28.514037" lon="105.152201"><ele>349.64</ele><time>2026-03-27T23:42:27.000Z</time></trkpt>
        <trkpt lat="28.513944" lon="105.1522104"><ele>350.92</ele><time>2026-03-27T23:42:37.000Z</time></trkpt>
        <trkpt lat="28.5138492" lon="105.1521999"><ele>352</ele><time>2026-03-27T23:42:47.000Z</time></trkpt>
        <trkpt lat="28.5137537" lon="105.1522448"><ele>352.23</ele><time>2026-03-27T23:42:57.000Z</time></trkpt>
        <trkpt lat="28.5136823" lon="105.1523102"><ele>351.15</ele><time>2026-03-27T23:43:07.000Z</time></trkpt>
        <trkpt lat="28.5136127" lon="105.1523864"><ele>349.85</ele><time>2026-03-27T23:43:19.000Z</time></trkpt>
        <trkpt lat="28.5135316" lon="105.1524486"><ele>350.95</ele><time>2026-03-27T23:43:31.000Z</time></trkpt>
        <trkpt lat="28.5134486" lon="105.1525074"><ele>351.03</ele><time>2026-03-27T23:43:41.000Z</time></trkpt>
        <trkpt lat="28.5133579" lon="105.1525518"><ele>351.47</ele><time>2026-03-27T23:43:51.000Z</time></trkpt>
        <trkpt lat="28.5132584" lon="105.1525721"><ele>352.03</ele><time>2026-03-27T23:44:01.000Z</time></trkpt>
        <trkpt lat="28.5131668" lon="105.152599"><ele>352.57</ele><time>2026-03-27T23:44:11.000Z</time></trkpt>
        <trkpt lat="28.5130782" lon="105.1525784"><ele>352.63</ele><time>2026-03-27T23:44:21.000Z</time></trkpt>
        <trkpt lat="28.5129915" lon="105.1525192"><ele>351.76</ele><time>2026-03-27T23:44:33.000Z</time></trkpt>
        <trkpt lat="28.5129033" lon="105.1524514"><ele>349.8</ele><time>2026-03-27T23:44:43.000Z</time></trkpt>
        <trkpt lat="28.5128154" lon="105.1524056"><ele>346.29</ele><time>2026-03-27T23:44:53.000Z</time></trkpt>
        <trkpt lat="28.5127686" lon="105.1523217"><ele>342.91</ele><time>2026-03-27T23:45:05.000Z</time></trkpt>
        <trkpt lat="28.5127799" lon="105.1522202"><ele>340.14</ele><time>2026-03-27T23:45:17.000Z</time></trkpt>
        <trkpt lat="28.5128045" lon="105.152109"><ele>338.39</ele><time>2026-03-27T23:45:35.000Z</time></trkpt>
        <trkpt lat="28.5127938" lon="105.1519963"><ele>338.81</ele><time>2026-03-27T23:45:49.000Z</time></trkpt>
        <trkpt lat="28.5127548" lon="105.1518993"><ele>340.34</ele><time>2026-03-27T23:46:23.000Z</time></trkpt>
        <trkpt lat="28.5126521" lon="105.1519354"><ele>344.29</ele><time>2026-03-27T23:47:37.000Z</time></trkpt>
        <trkpt lat="28.5125535" lon="105.1519426"><ele>348.26</ele><time>2026-03-27T23:47:53.000Z</time></trkpt>
        <trkpt lat="28.5124693" lon="105.1519812"><ele>351.83</ele><time>2026-03-27T23:48:07.000Z</time></trkpt>
        <trkpt lat="28.5123669" lon="105.1519946"><ele>355.03</ele><time>2026-03-27T23:48:21.000Z</time></trkpt>
        <trkpt lat="28.5122662" lon="105.1520207"><ele>357.03</ele><time>2026-03-27T23:48:31.000Z</time></trkpt>
        <trkpt lat="28.5122277" lon="105.1520432"><ele>358.23</ele><time>2026-03-27T23:48:39.000Z</time></trkpt>
        <trkpt lat="28.5121538" lon="105.1520415"><ele>360.45</ele><time>2026-03-27T23:48:51.000Z</time></trkpt>
        <trkpt lat="28.5120637" lon="105.1520204"><ele>361.22</ele><time>2026-03-27T23:49:01.000Z</time></trkpt>
        <trkpt lat="28.5119688" lon="105.1519835"><ele>361.68</ele><time>2026-03-27T23:49:15.000Z</time></trkpt>
        <trkpt lat="28.5118604" lon="105.1519514"><ele>360.89</ele><time>2026-03-27T23:49:29.000Z</time></trkpt>
        <trkpt lat="28.5117602" lon="105.1519176"><ele>360.47</ele><time>2026-03-27T23:49:41.000Z</time></trkpt>
        <trkpt lat="28.5116586" lon="105.1518796"><ele>358.77</ele><time>2026-03-27T23:49:51.000Z</time></trkpt>
        <trkpt lat="28.5115649" lon="105.1518515"><ele>357.09</ele><time>2026-03-27T23:49:59.000Z</time></trkpt>
        <trkpt lat="28.5114689" lon="105.1518141"><ele>356.33</ele><time>2026-03-27T23:50:17.000Z</time></trkpt>
        <trkpt lat="28.5113691" lon="105.1517813"><ele>354.51</ele><time>2026-03-27T23:50:29.000Z</time></trkpt>
        <trkpt lat="28.5112617" lon="105.1517527"><ele>353.86</ele><time>2026-03-27T23:50:41.000Z</time></trkpt>
        <trkpt lat="28.5111534" lon="105.1517388"><ele>354.25</ele><time>2026-03-27T23:50:51.000Z</time></trkpt>
        <trkpt lat="28.5110458" lon="105.1517429"><ele>355.08</ele><time>2026-03-27T23:51:01.000Z</time></trkpt>
        <trkpt lat="28.5109363" lon="105.1517523"><ele>355.61</ele><time>2026-03-27T23:51:11.000Z</time></trkpt>
        <trkpt lat="28.5108265" lon="105.1517607"><ele>355.79</ele><time>2026-03-27T23:51:21.000Z</time></trkpt>
        <trkpt lat="28.5107279" lon="105.1517634"><ele>355.33</ele><time>2026-03-27T23:51:31.000Z</time></trkpt>
        <trkpt lat="28.5106329" lon="105.151739"><ele>354.34</ele><time>2026-03-27T23:51:41.000Z</time></trkpt>
        <trkpt lat="28.5105744" lon="105.1516574"><ele>353.17</ele><time>2026-03-27T23:51:51.000Z</time></trkpt>
        <trkpt lat="28.5105434" lon="105.1515535"><ele>352.05</ele><time>2026-03-27T23:52:05.000Z</time></trkpt>
        <trkpt lat="28.5104924" lon="105.1514516"><ele>351.89</ele><time>2026-03-27T23:52:21.000Z</time></trkpt>
        <trkpt lat="28.510408" lon="105.1513883"><ele>351.43</ele><time>2026-03-27T23:52:33.000Z</time></trkpt>
        <trkpt lat="28.5103179" lon="105.1513382"><ele>350.58</ele><time>2026-03-27T23:52:43.000Z</time></trkpt>
        <trkpt lat="28.5102563" lon="105.1513305"><ele>349.53</ele><time>2026-03-27T23:52:49.000Z</time></trkpt>
        <trkpt lat="28.5101674" lon="105.1513477"><ele>349.37</ele><time>2026-03-27T23:53:01.000Z</time></trkpt>
        <trkpt lat="28.5100696" lon="105.1513611"><ele>349.75</ele><time>2026-03-27T23:53:11.000Z</time></trkpt>
        <trkpt lat="28.5099741" lon="105.1513819"><ele>350.18</ele><time>2026-03-27T23:53:23.000Z</time></trkpt>
        <trkpt lat="28.5098703" lon="105.1513949"><ele>350.55</ele><time>2026-03-27T23:53:35.000Z</time></trkpt>
        <trkpt lat="28.5097688" lon="105.1514073"><ele>351.22</ele><time>2026-03-27T23:53:45.000Z</time></trkpt>
        <trkpt lat="28.5096732" lon="105.1514249"><ele>352.14</ele><time>2026-03-27T23:53:53.000Z</time></trkpt>
        <trkpt lat="28.5095717" lon="105.1514429"><ele>353.04</ele><time>2026-03-27T23:54:03.000Z</time></trkpt>
        <trkpt lat="28.5094688" lon="105.1514675"><ele>353.42</ele><time>2026-03-27T23:54:15.000Z</time></trkpt>
        <trkpt lat="28.5093706" lon="105.1514731"><ele>352.84</ele><time>2026-03-27T23:54:25.000Z</time></trkpt>
        <trkpt lat="28.509269" lon="105.1514856"><ele>352.84</ele><time>2026-03-27T23:54:35.000Z</time></trkpt>
        <trkpt lat="28.5091729" lon="105.1514981"><ele>352.75</ele><time>2026-03-27T23:54:45.000Z</time></trkpt>
        <trkpt lat="28.5090783" lon="105.1515138"><ele>351.95</ele><time>2026-03-27T23:54:55.000Z</time></trkpt>
        <trkpt lat="28.5089771" lon="105.1515473"><ele>351.34</ele><time>2026-03-27T23:55:05.000Z</time></trkpt>
        <trkpt lat="28.5088939" lon="105.1516167"><ele>350.32</ele><time>2026-03-27T23:55:15.000Z</time></trkpt>
        <trkpt lat="28.5088097" lon="105.1516818"><ele>349.55</ele><time>2026-03-27T23:55:25.000Z</time></trkpt>
        <trkpt lat="28.5087303" lon="105.1517572"><ele>349.53</ele><time>2026-03-27T23:55:37.000Z</time></trkpt>
        <trkpt lat="28.5086385" lon="105.1517975"><ele>349.38</ele><time>2026-03-27T23:55:47.000Z</time></trkpt>
        <trkpt lat="28.508545" lon="105.1517916"><ele>349.17</ele><time>2026-03-27T23:55:57.000Z</time></trkpt>
        <trkpt lat="28.5084649" lon="105.1517393"><ele>349.73</ele><time>2026-03-27T23:56:07.000Z</time></trkpt>
        <trkpt lat="28.5084014" lon="105.1516494"><ele>350.76</ele><time>2026-03-27T23:56:19.000Z</time></trkpt>
        <trkpt lat="28.5083201" lon="105.151658"><ele>352.64</ele><time>2026-03-27T23:56:57.000Z</time></trkpt>
        <trkpt lat="28.5083454" lon="105.1515782"><ele>353.81</ele><time>2026-03-27T23:59:53.000Z</time></trkpt>
        <trkpt lat="28.5082931" lon="105.1514758"><ele>349.28</ele><time>2026-03-28T00:00:07.000Z</time></trkpt>
        <trkpt lat="28.5082439" lon="105.1513817"><ele>347.5</ele><time>2026-03-28T00:00:19.000Z</time></trkpt>
        <trkpt lat="28.5082102" lon="105.1512837"><ele>346.43</ele><time>2026-03-28T00:00:41.000Z</time></trkpt>
        <trkpt lat="28.5081447" lon="105.1512198"><ele>347.65</ele><time>2026-03-28T00:01:01.000Z</time></trkpt>
        <trkpt lat="28.5080712" lon="105.1511532"><ele>351.89</ele><time>2026-03-28T00:01:13.000Z</time></trkpt>
        <trkpt lat="28.5079991" lon="105.1510865"><ele>355.35</ele><time>2026-03-28T00:01:23.000Z</time></trkpt>
        <trkpt lat="28.5079299" lon="105.1510139"><ele>357.54</ele><time>2026-03-28T00:01:33.000Z</time></trkpt>
        <trkpt lat="28.5078632" lon="105.1509321"><ele>358.93</ele><time>2026-03-28T00:01:47.000Z</time></trkpt>
        <trkpt lat="28.5077917" lon="105.1508604"><ele>360.32</ele><time>2026-03-28T00:01:59.000Z</time></trkpt>
        <trkpt lat="28.5077137" lon="105.1507838"><ele>363.31</ele><time>2026-03-28T00:02:35.000Z</time></trkpt>
        <trkpt lat="28.5076503" lon="105.1507036"><ele>366.87</ele><time>2026-03-28T00:02:47.000Z</time></trkpt>
        <trkpt lat="28.5075672" lon="105.150656"><ele>369.09</ele><time>2026-03-28T00:02:57.000Z</time></trkpt>
        <trkpt lat="28.5075031" lon="105.1505802"><ele>373.18</ele><time>2026-03-28T00:03:15.000Z</time></trkpt>
        <trkpt lat="28.5074711" lon="105.1504825"><ele>374.67</ele><time>2026-03-28T00:03:29.000Z</time></trkpt>
        <trkpt lat="28.5074553" lon="105.1503663"><ele>374.93</ele><time>2026-03-28T00:03:43.000Z</time></trkpt>
        <trkpt lat="28.5074446" lon="105.1502563"><ele>375.82</ele><time>2026-03-28T00:03:55.000Z</time></trkpt>
        <trkpt lat="28.5074425" lon="105.1501434"><ele>375.76</ele><time>2026-03-28T00:04:21.000Z</time></trkpt>
        <trkpt lat="28.5074198" lon="105.1500383"><ele>376.8</ele><time>2026-03-28T00:04:33.000Z</time></trkpt>
        <trkpt lat="28.507444" lon="105.1499387"><ele>376.86</ele><time>2026-03-28T00:04:49.000Z</time></trkpt>
        <trkpt lat="28.5074535" lon="105.1498304"><ele>377.15</ele><time>2026-03-28T00:04:59.000Z</time></trkpt>
        <trkpt lat="28.5074458" lon="105.1497132"><ele>375.87</ele><time>2026-03-28T00:05:09.000Z</time></trkpt>
        <trkpt lat="28.5074104" lon="105.149598"><ele>376.4</ele><time>2026-03-28T00:05:19.000Z</time></trkpt>
        <trkpt lat="28.5073421" lon="105.1495181"><ele>376.21</ele><time>2026-03-28T00:05:27.000Z</time></trkpt>
        <trkpt lat="28.5072509" lon="105.1494724"><ele>377.42</ele><time>2026-03-28T00:05:35.000Z</time></trkpt>
        <trkpt lat="28.5071515" lon="105.1494613"><ele>378.36</ele><time>2026-03-28T00:05:45.000Z</time></trkpt>
        <trkpt lat="28.507058" lon="105.1495255"><ele>379.49</ele><time>2026-03-28T00:05:55.000Z</time></trkpt>
        <trkpt lat="28.506989" lon="105.1496243"><ele>380.6</ele><time>2026-03-28T00:06:05.000Z</time></trkpt>
        <trkpt lat="28.5068984" lon="105.1496892"><ele>382.86</ele><time>2026-03-28T00:06:15.000Z</time></trkpt>
        <trkpt lat="28.5068072" lon="105.1496997"><ele>384.52</ele><time>2026-03-28T00:06:25.000Z</time></trkpt>
        <trkpt lat="28.506721" lon="105.1496434"><ele>385.94</ele><time>2026-03-28T00:06:35.000Z</time></trkpt>
        <trkpt lat="28.5066399" lon="105.149561"><ele>386.76</ele><time>2026-03-28T00:06:45.000Z</time></trkpt>
        <trkpt lat="28.506548" lon="105.1495064"><ele>387.71</ele><time>2026-03-28T00:06:57.000Z</time></trkpt>
        <trkpt lat="28.5064514" lon="105.1495222"><ele>386.47</ele><time>2026-03-28T00:07:07.000Z</time></trkpt>
        <trkpt lat="28.5063768" lon="105.1496038"><ele>383.86</ele><time>2026-03-28T00:07:17.000Z</time></trkpt>
        <trkpt lat="28.5063352" lon="105.1497155"><ele>382.51</ele><time>2026-03-28T00:07:29.000Z</time></trkpt>
        <trkpt lat="28.5063098" lon="105.1498337"><ele>381.48</ele><time>2026-03-28T00:07:39.000Z</time></trkpt>
        <trkpt lat="28.5062854" lon="105.1499558"><ele>379.65</ele><time>2026-03-28T00:07:51.000Z</time></trkpt>
        <trkpt lat="28.5062268" lon="105.1500527"><ele>380.31</ele><time>2026-03-28T00:07:59.000Z</time></trkpt>
        <trkpt lat="28.5061399" lon="105.1500587"><ele>384.37</ele><time>2026-03-28T00:08:11.000Z</time></trkpt>
        <trkpt lat="28.5060543" lon="105.1500115"><ele>385.77</ele><time>2026-03-28T00:08:25.000Z</time></trkpt>
        <trkpt lat="28.5059787" lon="105.1499184"><ele>387.16</ele><time>2026-03-28T00:08:37.000Z</time></trkpt>
        <trkpt lat="28.5059104" lon="105.1498255"><ele>389.07</ele><time>2026-03-28T00:08:49.000Z</time></trkpt>
        <trkpt lat="28.5058232" lon="105.1497663"><ele>390.99</ele><time>2026-03-28T00:09:01.000Z</time></trkpt>
        <trkpt lat="28.5057284" lon="105.1497549"><ele>391.27</ele><time>2026-03-28T00:09:09.000Z</time></trkpt>
        <trkpt lat="28.5056359" lon="105.1498003"><ele>391.74</ele><time>2026-03-28T00:09:19.000Z</time></trkpt>
        <trkpt lat="28.5055534" lon="105.1498742"><ele>393.06</ele><time>2026-03-28T00:09:29.000Z</time></trkpt>
        <trkpt lat="28.5054719" lon="105.149955"><ele>392.96</ele><time>2026-03-28T00:09:41.000Z</time></trkpt>
        <trkpt lat="28.5053685" lon="105.1499646"><ele>393.38</ele><time>2026-03-28T00:09:49.000Z</time></trkpt>
        <trkpt lat="28.5052948" lon="105.1498948"><ele>396.67</ele><time>2026-03-28T00:09:59.000Z</time></trkpt>
        <trkpt lat="28.5053086" lon="105.1497816"><ele>400.55</ele><time>2026-03-28T00:10:11.000Z</time></trkpt>
        <trkpt lat="28.5052975" lon="105.1496688"><ele>400.16</ele><time>2026-03-28T00:10:25.000Z</time></trkpt>
        <trkpt lat="28.5052802" lon="105.1495507"><ele>400.18</ele><time>2026-03-28T00:10:37.000Z</time></trkpt>
        <trkpt lat="28.5052609" lon="105.1494391"><ele>401.21</ele><time>2026-03-28T00:10:49.000Z</time></trkpt>
        <trkpt lat="28.5052488" lon="105.1493318"><ele>401.7</ele><time>2026-03-28T00:11:01.000Z</time></trkpt>
        <trkpt lat="28.5052321" lon="105.1492212"><ele>401.68</ele><time>2026-03-28T00:11:13.000Z</time></trkpt>
        <trkpt lat="28.5052084" lon="105.1491058"><ele>402.06</ele><time>2026-03-28T00:11:27.000Z</time></trkpt>
        <trkpt lat="28.5051754" lon="105.149004"><ele>400.52</ele><time>2026-03-28T00:11:37.000Z</time></trkpt>
        <trkpt lat="28.505141" lon="105.1489069"><ele>400.04</ele><time>2026-03-28T00:11:45.000Z</time></trkpt>
        <trkpt lat="28.5050821" lon="105.1488198"><ele>400.72</ele><time>2026-03-28T00:11:55.000Z</time></trkpt>
        <trkpt lat="28.5050038" lon="105.1487544"><ele>402.28</ele><time>2026-03-28T00:12:05.000Z</time></trkpt>
        <trkpt lat="28.5049138" lon="105.1486896"><ele>404.18</ele><time>2026-03-28T00:12:21.000Z</time></trkpt>
        <trkpt lat="28.5048157" lon="105.1486658"><ele>405.8</ele><time>2026-03-28T00:12:31.000Z</time></trkpt>
        <trkpt lat="28.5047138" lon="105.1486349"><ele>407.08</ele><time>2026-03-28T00:12:47.000Z</time></trkpt>
        <trkpt lat="28.5046123" lon="105.148604"><ele>408.61</ele><time>2026-03-28T00:12:59.000Z</time></trkpt>
        <trkpt lat="28.5045208" lon="105.1485713"><ele>412.14</ele><time>2026-03-28T00:13:11.000Z</time></trkpt>
        <trkpt lat="28.5044221" lon="105.1485463"><ele>414.98</ele><time>2026-03-28T00:13:23.000Z</time></trkpt>
        <trkpt lat="28.504322" lon="105.1485375"><ele>417</ele><time>2026-03-28T00:13:37.000Z</time></trkpt>
        <trkpt lat="28.5042235" lon="105.1485471"><ele>419.62</ele><time>2026-03-28T00:13:51.000Z</time></trkpt>
        <trkpt lat="28.5041235" lon="105.1485318"><ele>422.17</ele><time>2026-03-28T00:14:05.000Z</time></trkpt>
        <trkpt lat="28.5040247" lon="105.1484955"><ele>424.25</ele><time>2026-03-28T00:14:17.000Z</time></trkpt>
        <trkpt lat="28.5039304" lon="105.1484445"><ele>424.18</ele><time>2026-03-28T00:14:29.000Z</time></trkpt>
        <trkpt lat="28.5038442" lon="105.1483786"><ele>422.78</ele><time>2026-03-28T00:14:41.000Z</time></trkpt>
        <trkpt lat="28.5037932" lon="105.1482779"><ele>421.72</ele><time>2026-03-28T00:14:53.000Z</time></trkpt>
        <trkpt lat="28.5037808" lon="105.148162"><ele>419.95</ele><time>2026-03-28T00:15:05.000Z</time></trkpt>
        <trkpt lat="28.5037904" lon="105.1480497"><ele>418.27</ele><time>2026-03-28T00:15:19.000Z</time></trkpt>
        <trkpt lat="28.503837" lon="105.1479472"><ele>415.48</ele><time>2026-03-28T00:15:29.000Z</time></trkpt>
        <trkpt lat="28.5039049" lon="105.1478551"><ele>415.32</ele><time>2026-03-28T00:15:41.000Z</time></trkpt>
        <trkpt lat="28.5039914" lon="105.1477882"><ele>416.37</ele><time>2026-03-28T00:15:55.000Z</time></trkpt>
        <trkpt lat="28.5040859" lon="105.1477522"><ele>415.94</ele><time>2026-03-28T00:16:09.000Z</time></trkpt>
        <trkpt lat="28.5041574" lon="105.14767"><ele>415.06</ele><time>2026-03-28T00:16:21.000Z</time></trkpt>
        <trkpt lat="28.5042251" lon="105.1475923"><ele>415.22</ele><time>2026-03-28T00:16:31.000Z</time></trkpt>
        <trkpt lat="28.5042837" lon="105.1475049"><ele>414.52</ele><time>2026-03-28T00:16:43.000Z</time></trkpt>
        <trkpt lat="28.5043399" lon="105.1474199"><ele>414.79</ele><time>2026-03-28T00:16:53.000Z</time></trkpt>
        <trkpt lat="28.5043849" lon="105.1473267"><ele>413.59</ele><time>2026-03-28T00:17:05.000Z</time></trkpt>
        <trkpt lat="28.5044117" lon="105.1472269"><ele>411.76</ele><time>2026-03-28T00:17:17.000Z</time></trkpt>
        <trkpt lat="28.5043877" lon="105.1471258"><ele>411.09</ele><time>2026-03-28T00:17:29.000Z</time></trkpt>
        <trkpt lat="28.5043408" lon="105.1470293"><ele>414.39</ele><time>2026-03-28T00:17:39.000Z</time></trkpt>
        <trkpt lat="28.5042806" lon="105.146939"><ele>419.43</ele><time>2026-03-28T00:17:53.000Z</time></trkpt>
        <trkpt lat="28.5042215" lon="105.1468528"><ele>425.18</ele><time>2026-03-28T00:18:07.000Z</time></trkpt>
        <trkpt lat="28.5041884" lon="105.1467501"><ele>428.75</ele><time>2026-03-28T00:18:19.000Z</time></trkpt>
        <trkpt lat="28.5041756" lon="105.1466408"><ele>430.18</ele><time>2026-03-28T00:18:33.000Z</time></trkpt>
        <trkpt lat="28.5041747" lon="105.1465329"><ele>429.44</ele><time>2026-03-28T00:18:45.000Z</time></trkpt>
        <trkpt lat="28.5041725" lon="105.1464256"><ele>429.34</ele><time>2026-03-28T00:18:57.000Z</time></trkpt>
        <trkpt lat="28.5041856" lon="105.1463195"><ele>430.55</ele><time>2026-03-28T00:19:11.000Z</time></trkpt>
        <trkpt lat="28.504234" lon="105.1462124"><ele>431.27</ele><time>2026-03-28T00:19:25.000Z</time></trkpt>
        <trkpt lat="28.5042619" lon="105.1461026"><ele>432.39</ele><time>2026-03-28T00:19:37.000Z</time></trkpt>
        <trkpt lat="28.5042552" lon="105.1459994"><ele>433.47</ele><time>2026-03-28T00:19:47.000Z</time></trkpt>
        <trkpt lat="28.5042025" lon="105.1459168"><ele>435.51</ele><time>2026-03-28T00:19:57.000Z</time></trkpt>
        <trkpt lat="28.5041185" lon="105.145854"><ele>437.9</ele><time>2026-03-28T00:20:05.000Z</time></trkpt>
        <trkpt lat="28.5040228" lon="105.1458318"><ele>441.38</ele><time>2026-03-28T00:20:15.000Z</time></trkpt>
        <trkpt lat="28.5039257" lon="105.1458792"><ele>444.51</ele><time>2026-03-28T00:20:27.000Z</time></trkpt>
        <trkpt lat="28.5038388" lon="105.1459391"><ele>444.38</ele><time>2026-03-28T00:20:37.000Z</time></trkpt>
        <trkpt lat="28.503749" lon="105.1460074"><ele>443.75</ele><time>2026-03-28T00:20:49.000Z</time></trkpt>
        <trkpt lat="28.5036525" lon="105.146059"><ele>443.15</ele><time>2026-03-28T00:21:01.000Z</time></trkpt>
        <trkpt lat="28.5035557" lon="105.1461002"><ele>442.42</ele><time>2026-03-28T00:21:13.000Z</time></trkpt>
        <trkpt lat="28.5034591" lon="105.1461217"><ele>441.5</ele><time>2026-03-28T00:21:25.000Z</time></trkpt>
        <trkpt lat="28.5033569" lon="105.1461452"><ele>441.31</ele><time>2026-03-28T00:21:37.000Z</time></trkpt>
        <trkpt lat="28.503264" lon="105.1461702"><ele>441.75</ele><time>2026-03-28T00:21:47.000Z</time></trkpt>
        <trkpt lat="28.5031775" lon="105.1462129"><ele>441.95</ele><time>2026-03-28T00:21:57.000Z</time></trkpt>
        <trkpt lat="28.5031038" lon="105.1462825"><ele>442.87</ele><time>2026-03-28T00:22:09.000Z</time></trkpt>
        <trkpt lat="28.5030302" lon="105.1463616"><ele>442.35</ele><time>2026-03-28T00:22:21.000Z</time></trkpt>
        <trkpt lat="28.5029531" lon="105.1464319"><ele>441.5</ele><time>2026-03-28T00:22:33.000Z</time></trkpt>
        <trkpt lat="28.5028754" lon="105.1464995"><ele>441.34</ele><time>2026-03-28T00:22:45.000Z</time></trkpt>
        <trkpt lat="28.5027975" lon="105.1465596"><ele>440.28</ele><time>2026-03-28T00:22:55.000Z</time></trkpt>
        <trkpt lat="28.5027094" lon="105.1466045"><ele>440.08</ele><time>2026-03-28T00:23:07.000Z</time></trkpt>
        <trkpt lat="28.5026097" lon="105.1465954"><ele>442.76</ele><time>2026-03-28T00:23:19.000Z</time></trkpt>
        <trkpt lat="28.5025262" lon="105.146522"><ele>445.25</ele><time>2026-03-28T00:23:31.000Z</time></trkpt>
        <trkpt lat="28.5024602" lon="105.1464193"><ele>445.77</ele><time>2026-03-28T00:23:43.000Z</time></trkpt>
        <trkpt lat="28.5024037" lon="105.1463211"><ele>445.48</ele><time>2026-03-28T00:23:53.000Z</time></trkpt>
        <trkpt lat="28.502346" lon="105.1462304"><ele>445.52</ele><time>2026-03-28T00:24:03.000Z</time></trkpt>
        <trkpt lat="28.5022793" lon="105.1461478"><ele>446.34</ele><time>2026-03-28T00:24:13.000Z</time></trkpt>
        <trkpt lat="28.5021956" lon="105.1460996"><ele>448.29</ele><time>2026-03-28T00:24:23.000Z</time></trkpt>
        <trkpt lat="28.5021053" lon="105.1461032"><ele>449.55</ele><time>2026-03-28T00:24:33.000Z</time></trkpt>
        <trkpt lat="28.5020129" lon="105.1461564"><ele>448.9</ele><time>2026-03-28T00:24:43.000Z</time></trkpt>
        <trkpt lat="28.5019507" lon="105.1462578"><ele>449.2</ele><time>2026-03-28T00:24:55.000Z</time></trkpt>
        <trkpt lat="28.5019035" lon="105.1463672"><ele>449.4</ele><time>2026-03-28T00:25:07.000Z</time></trkpt>
        <trkpt lat="28.5018819" lon="105.1464817"><ele>449.49</ele><time>2026-03-28T00:25:19.000Z</time></trkpt>
        <trkpt lat="28.501852" lon="105.1465987"><ele>449.87</ele><time>2026-03-28T00:25:31.000Z</time></trkpt>
        <trkpt lat="28.5017913" lon="105.1466849"><ele>451.6</ele><time>2026-03-28T00:25:43.000Z</time></trkpt>
        <trkpt lat="28.5017026" lon="105.1467174"><ele>454.12</ele><time>2026-03-28T00:26:05.000Z</time></trkpt>
        <trkpt lat="28.5016018" lon="105.1466836"><ele>457.14</ele><time>2026-03-28T00:26:15.000Z</time></trkpt>
        <trkpt lat="28.5015281" lon="105.1465923"><ele>460.02</ele><time>2026-03-28T00:26:25.000Z</time></trkpt>
        <trkpt lat="28.5014757" lon="105.1464869"><ele>461.96</ele><time>2026-03-28T00:26:35.000Z</time></trkpt>
        <trkpt lat="28.5014335" lon="105.1463718"><ele>463.77</ele><time>2026-03-28T00:26:45.000Z</time></trkpt>
        <trkpt lat="28.5014097" lon="105.1462514"><ele>465.21</ele><time>2026-03-28T00:27:05.000Z</time></trkpt>
        <trkpt lat="28.5013715" lon="105.1461504"><ele>464.22</ele><time>2026-03-28T00:27:15.000Z</time></trkpt>
        <trkpt lat="28.5013328" lon="105.1460474"><ele>463.64</ele><time>2026-03-28T00:27:27.000Z</time></trkpt>
        <trkpt lat="28.5012835" lon="105.1459472"><ele>462.02</ele><time>2026-03-28T00:27:39.000Z</time></trkpt>
        <trkpt lat="28.5012289" lon="105.1458406"><ele>460.94</ele><time>2026-03-28T00:27:51.000Z</time></trkpt>
        <trkpt lat="28.501185" lon="105.1457294"><ele>461.59</ele><time>2026-03-28T00:28:01.000Z</time></trkpt>
        <trkpt lat="28.5011592" lon="105.1456189"><ele>461.3</ele><time>2026-03-28T00:28:15.000Z</time></trkpt>
        <trkpt lat="28.501195" lon="105.1455169"><ele>461.42</ele><time>2026-03-28T00:28:27.000Z</time></trkpt>
        <trkpt lat="28.5012381" lon="105.1454127"><ele>461.03</ele><time>2026-03-28T00:28:39.000Z</time></trkpt>
        <trkpt lat="28.5012747" lon="105.1453002"><ele>460.85</ele><time>2026-03-28T00:28:51.000Z</time></trkpt>
        <trkpt lat="28.5012836" lon="105.1451805"><ele>460.06</ele><time>2026-03-28T00:29:03.000Z</time></trkpt>
        <trkpt lat="28.5013234" lon="105.1450824"><ele>458.3</ele><time>2026-03-28T00:29:13.000Z</time></trkpt>
        <trkpt lat="28.5013781" lon="105.1449778"><ele>457.87</ele><time>2026-03-28T00:29:25.000Z</time></trkpt>
        <trkpt lat="28.5013976" lon="105.1448859"><ele>457.92</ele><time>2026-03-28T00:29:37.000Z</time></trkpt>
        <trkpt lat="28.5013571" lon="105.1447951"><ele>458.21</ele><time>2026-03-28T00:30:19.000Z</time></trkpt>
        <trkpt lat="28.501264" lon="105.1447608"><ele>461.49</ele><time>2026-03-28T00:30:31.000Z</time></trkpt>
        <trkpt lat="28.5011507" lon="105.1447579"><ele>464.93</ele><time>2026-03-28T00:30:41.000Z</time></trkpt>
        <trkpt lat="28.5010436" lon="105.1447435"><ele>467.47</ele><time>2026-03-28T00:30:49.000Z</time></trkpt>
        <trkpt lat="28.5009476" lon="105.1447157"><ele>469.81</ele><time>2026-03-28T00:30:57.000Z</time></trkpt>
        <trkpt lat="28.5008611" lon="105.144644"><ele>471.65</ele><time>2026-03-28T00:31:07.000Z</time></trkpt>
        <trkpt lat="28.5007812" lon="105.1445835"><ele>473.87</ele><time>2026-03-28T00:31:15.000Z</time></trkpt>
        <trkpt lat="28.5007007" lon="105.1445276"><ele>474.16</ele><time>2026-03-28T00:31:23.000Z</time></trkpt>
        <trkpt lat="28.5006349" lon="105.1444504"><ele>473.38</ele><time>2026-03-28T00:31:33.000Z</time></trkpt>
        <trkpt lat="28.5005513" lon="105.1443758"><ele>473.39</ele><time>2026-03-28T00:31:43.000Z</time></trkpt>
        <trkpt lat="28.5004608" lon="105.1443211"><ele>474.33</ele><time>2026-03-28T00:31:51.000Z</time></trkpt>
        <trkpt lat="28.5003717" lon="105.1442589"><ele>474.42</ele><time>2026-03-28T00:31:59.000Z</time></trkpt>
        <trkpt lat="28.5002863" lon="105.1442192"><ele>473.63</ele><time>2026-03-28T00:32:09.000Z</time></trkpt>
        <trkpt lat="28.5002045" lon="105.1441648"><ele>473.34</ele><time>2026-03-28T00:32:33.000Z</time></trkpt>
        <trkpt lat="28.5001258" lon="105.1440959"><ele>471.4</ele><time>2026-03-28T00:32:41.000Z</time></trkpt>
        <trkpt lat="28.500043" lon="105.1440239"><ele>469.3</ele><time>2026-03-28T00:32:49.000Z</time></trkpt>
        <trkpt lat="28.4999722" lon="105.1439398"><ele>466.97</ele><time>2026-03-28T00:32:57.000Z</time></trkpt>
        <trkpt lat="28.4999345" lon="105.1438231"><ele>463.79</ele><time>2026-03-28T00:33:05.000Z</time></trkpt>
        <trkpt lat="28.4999568" lon="105.143766"><ele>460.14</ele><time>2026-03-28T00:33:15.000Z</time></trkpt>
        <trkpt lat="28.4999568" lon="105.143766"><ele>460.14</ele><time>2026-03-28T00:33:37.000Z</time></trkpt>
      </trkseg>
  </trk>
</gpx>